<?xml version='1.0' encoding='UTF-8'?><gpx version="1.1" creator="JPX - https://github.com/jenetics/jpx" xmlns="http://www.topografix.com/GPX/1/1"><trk><trkseg><trkpt lat="43.50473578092037" lon="10.620357049638983"><ele>304.0</ele><time>2026-04-18T06:14:17.001Z</time></trkpt><trkpt lat="43.50479537625192" lon="10.620400467897412"><ele>304.0</ele><time>2026-04-18T06:15:30Z</time></trkpt><trkpt lat="43.504744120914026" lon="10.620340537289735"><ele>304.0</ele><time>2026-04-18T06:15:50Z</time></trkpt><trkpt lat="43.50473607428698" lon="10.620430894205924"><ele>304.0</ele><time>2026-04-18T06:17:00Z</time></trkpt></trkseg><trkseg><trkpt lat="43.50484269209532" lon="10.620305836210605"><ele>309.00000000000006</ele><time>2026-04-18T06:34:17.999Z</time></trkpt><trkpt lat="43.504765285219534" lon="10.620286641652342"><ele>309.0</ele><time>2026-04-18T06:34:42.999Z</time></trkpt><trkpt lat="43.50473125469266" lon="10.620367443198916"><ele>309.0</ele><time>2026-04-18T06:34:49.999Z</time></trkpt><trkpt lat="43.50469751753239" lon="10.620282953614947"><ele>309.0</ele><time>2026-04-18T06:42:08.999Z</time></trkpt><trkpt lat="43.50463423416345" lon="10.620239032442328"><ele>309.0</ele><time>2026-04-18T06:42:49.999Z</time></trkpt><trkpt lat="43.50469144065259" lon="10.6201609969238"><ele>309.00000000000006</ele><time>2026-04-18T06:43:25.998Z</time></trkpt><trkpt lat="43.504744037094994" lon="10.620105341086742"><ele>309.0</ele><time>2026-04-18T06:43:52.998Z</time></trkpt><trkpt lat="43.504808787296994" lon="10.620033591995593"><ele>309.0</ele><time>2026-04-18T06:43:54.998Z</time></trkpt><trkpt lat="43.5048991861227" lon="10.61992982403433"><ele>309.0</ele><time>2026-04-18T06:43:56.998Z</time></trkpt><trkpt lat="43.5049914289671" lon="10.619822284216639"><ele>309.0</ele><time>2026-04-18T06:43:58.998Z</time></trkpt><trkpt lat="43.50504465405224" lon="10.619672583425995"><ele>309.0</ele><time>2026-04-18T06:44:00.998Z</time></trkpt><trkpt lat="43.50508593492536" lon="10.61951944605505"><ele>309.59999999999997</ele><time>2026-04-18T06:44:02.998Z</time></trkpt><trkpt lat="43.50512977227895" lon="10.619452474648709"><ele>310.2</ele><time>2026-04-18T06:44:03.998Z</time></trkpt><trkpt lat="43.50520676005958" lon="10.619358932609314"><ele>310.79999999999995</ele><time>2026-04-18T06:44:05.998Z</time></trkpt><trkpt lat="43.505335086997135" lon="10.61937041581666"><ele>311.4</ele><time>2026-04-18T06:44:07.998Z</time></trkpt><trkpt lat="43.50544199817209" lon="10.619396148259396"><ele>312.0</ele><time>2026-04-18T06:44:08.998Z</time></trkpt><trkpt lat="43.505541281815155" lon="10.619431603709812"><ele>309.6</ele><time>2026-04-18T06:44:09.998Z</time></trkpt><trkpt lat="43.50564991128026" lon="10.619453229019994"><ele>307.2</ele><time>2026-04-18T06:44:10.998Z</time></trkpt><trkpt lat="43.50573905282049" lon="10.619468484083766"><ele>304.8</ele><time>2026-04-18T06:44:11.998Z</time></trkpt><trkpt lat="43.50582605697541" lon="10.619457336152548"><ele>302.4</ele><time>2026-04-18T06:44:12.998Z</time></trkpt><trkpt lat="43.505910462740346" lon="10.619439985612983"><ele>300.0</ele><time>2026-04-18T06:44:13.998Z</time></trkpt><trkpt lat="43.50599071946321" lon="10.619405871267075"><ele>299.99999999999994</ele><time>2026-04-18T06:44:14.998Z</time></trkpt><trkpt lat="43.50606665950595" lon="10.619375947872753"><ele>300.0</ele><time>2026-04-18T06:44:15.998Z</time></trkpt><trkpt lat="43.50614645522414" lon="10.61934744940197"><ele>300.0</ele><time>2026-04-18T06:44:16.998Z</time></trkpt><trkpt lat="43.50621883295803" lon="10.619318280378932"><ele>300.0</ele><time>2026-04-18T06:44:17.998Z</time></trkpt><trkpt lat="43.506287438835486" lon="10.619307635361904"><ele>300.0</ele><time>2026-04-18T06:44:18.998Z</time></trkpt><trkpt lat="43.50635570943682" lon="10.619292464117164"><ele>299.99999999999994</ele><time>2026-04-18T06:44:19.998Z</time></trkpt><trkpt lat="43.50642699752329" lon="10.61930302531516"><ele>300.0</ele><time>2026-04-18T06:44:20.998Z</time></trkpt><trkpt lat="43.506494639481886" lon="10.619316603998298"><ele>298.1666666666667</ele><time>2026-04-18T06:44:21.998Z</time></trkpt><trkpt lat="43.506563538725956" lon="10.619310066113824"><ele>296.3333333333333</ele><time>2026-04-18T06:44:22.998Z</time></trkpt><trkpt lat="43.50664069414465" lon="10.6192957330594"><ele>294.5</ele><time>2026-04-18T06:44:23.998Z</time></trkpt><trkpt lat="43.50670745600341" lon="10.619275448853726"><ele>292.66666666666663</ele><time>2026-04-18T06:44:24.998Z</time></trkpt><trkpt lat="43.5067719128388" lon="10.61924485490715"><ele>290.8333333333333</ele><time>2026-04-18T06:44:25.998Z</time></trkpt><trkpt lat="43.50689089395432" lon="10.619205879057402"><ele>289.0</ele><time>2026-04-18T06:44:27.998Z</time></trkpt><trkpt lat="43.50698724393128" lon="10.619102530191297"><ele>289.0</ele><time>2026-04-18T06:44:29.998Z</time></trkpt><trkpt lat="43.50703669715999" lon="10.619035474965925"><ele>289.0</ele><time>2026-04-18T06:44:30.998Z</time></trkpt><trkpt lat="43.50709398746817" lon="10.61896783300733"><ele>289.0</ele><time>2026-04-18T06:44:31.998Z</time></trkpt><trkpt lat="43.50715706128953" lon="10.61890136451518"><ele>289.0</ele><time>2026-04-18T06:44:32.998Z</time></trkpt><trkpt lat="43.507224367972" lon="10.61884419993555"><ele>289.0</ele><time>2026-04-18T06:44:33.998Z</time></trkpt><trkpt lat="43.507294021587356" lon="10.6187967583636"><ele>289.0</ele><time>2026-04-18T06:44:34.998Z</time></trkpt><trkpt lat="43.50736426193593" lon="10.618762224922532"><ele>288.3333333333333</ele><time>2026-04-18T06:44:35.998Z</time></trkpt><trkpt lat="43.50748936184077" lon="10.618720315406675"><ele>287.66666666666663</ele><time>2026-04-18T06:44:37.998Z</time></trkpt><trkpt lat="43.50755168129085" lon="10.618695002059097"><ele>287.0</ele><time>2026-04-18T06:44:38.998Z</time></trkpt><trkpt lat="43.507622131187006" lon="10.618655942390317"><ele>286.3333333333333</ele><time>2026-04-18T06:44:39.998Z</time></trkpt><trkpt lat="43.50768667184143" lon="10.618592239926214"><ele>285.6666666666667</ele><time>2026-04-18T06:44:40.998Z</time></trkpt><trkpt lat="43.507751631591006" lon="10.618517221892828"><ele>285.0</ele><time>2026-04-18T06:44:41.998Z</time></trkpt><trkpt lat="43.5078116041082" lon="10.618436085070128"><ele>285.0</ele><time>2026-04-18T06:44:42.998Z</time></trkpt><trkpt lat="43.50787036124943" lon="10.61835897156095"><ele>285.0</ele><time>2026-04-18T06:44:43.998Z</time></trkpt><trkpt lat="43.50791323468415" lon="10.618278421471471"><ele>285.0</ele><time>2026-04-18T06:44:44.998Z</time></trkpt><trkpt lat="43.50794684611587" lon="10.618185633803362"><ele>285.0</ele><time>2026-04-18T06:44:45.998Z</time></trkpt><trkpt lat="43.50797425493924" lon="10.618082620213384"><ele>285.0</ele><time>2026-04-18T06:44:46.998Z</time></trkpt><trkpt lat="43.508029659319206" lon="10.617960328246111"><ele>285.0</ele><time>2026-04-18T06:44:47.998Z</time></trkpt><trkpt lat="43.50807349667279" lon="10.617840802306885"><ele>285.6666666666667</ele><time>2026-04-18T06:44:48.998Z</time></trkpt><trkpt lat="43.508114861364945" lon="10.617724545309896"><ele>286.3333333333333</ele><time>2026-04-18T06:44:49.998Z</time></trkpt><trkpt lat="43.508157650980635" lon="10.617622453729265"><ele>287.0</ele><time>2026-04-18T06:44:50.998Z</time></trkpt><trkpt lat="43.50819180723606" lon="10.61750108377134"><ele>287.66666666666663</ele><time>2026-04-18T06:44:51.998Z</time></trkpt><trkpt lat="43.50821024742304" lon="10.617409301931612"><ele>288.3333333333333</ele><time>2026-04-18T06:44:52.998Z</time></trkpt><trkpt lat="43.50823329765676" lon="10.617315759892218"><ele>289.0</ele><time>2026-04-18T06:44:53.998Z</time></trkpt><trkpt lat="43.50827260878263" lon="10.617231186489217"><ele>289.0</ele><time>2026-04-18T06:44:54.998Z</time></trkpt><trkpt lat="43.50832109809248" lon="10.617136470983379"><ele>289.0</ele><time>2026-04-18T06:44:55.998Z</time></trkpt><trkpt lat="43.50837926850049" lon="10.617040414373033"><ele>289.0</ele><time>2026-04-18T06:44:56.998Z</time></trkpt><trkpt lat="43.508437564637056" lon="10.616950057456844"><ele>289.0</ele><time>2026-04-18T06:44:57.998Z</time></trkpt><trkpt lat="43.50850340448647" lon="10.616848636428468"><ele>289.0</ele><time>2026-04-18T06:44:58.998Z</time></trkpt><trkpt lat="43.50857574031084" lon="10.616763979206436"><ele>289.5</ele><time>2026-04-18T06:44:59.998Z</time></trkpt><trkpt lat="43.50864095151751" lon="10.616686865697258"><ele>290.0</ele><time>2026-04-18T06:45:00.998Z</time></trkpt><trkpt lat="43.508703857700816" lon="10.61660975218808"><ele>290.5</ele><time>2026-04-18T06:45:01.998Z</time></trkpt><trkpt lat="43.508766889612666" lon="10.616538506011121"><ele>291.0</ele><time>2026-04-18T06:45:02.998Z</time></trkpt><trkpt lat="43.50882317409246" lon="10.616470780233495"><ele>291.5</ele><time>2026-04-18T06:45:03.998Z</time></trkpt><trkpt lat="43.50888126068144" lon="10.616404814655535"><ele>292.0</ele><time>2026-04-18T06:45:04.998Z</time></trkpt><trkpt lat="43.50895439278661" lon="10.616378411660545"><ele>292.0</ele><time>2026-04-18T06:45:06.998Z</time></trkpt><trkpt lat="43.50901759233653" lon="10.616344045857542"><ele>292.0</ele><time>2026-04-18T06:45:45.998Z</time></trkpt><trkpt lat="43.509084773290446" lon="10.616326695317976"><ele>292.0</ele><time>2026-04-18T06:46:18Z</time></trkpt><trkpt lat="43.509151367511144" lon="10.616411939273231"><ele>292.0</ele><time>2026-04-18T06:46:20Z</time></trkpt><trkpt lat="43.50919067863702" lon="10.616501038903944"><ele>292.0</ele><time>2026-04-18T06:46:21Z</time></trkpt><trkpt lat="43.50922466725438" lon="10.616641771058195"><ele>292.0</ele><time>2026-04-18T06:46:22Z</time></trkpt><trkpt lat="43.50928212520062" lon="10.616709245378726"><ele>292.0</ele><time>2026-04-18T06:46:23Z</time></trkpt><trkpt lat="43.50934322927474" lon="10.616796500990741"><ele>292.0</ele><time>2026-04-18T06:46:24Z</time></trkpt><trkpt lat="43.50939138330846" lon="10.616885516802423"><ele>292.0</ele><time>2026-04-18T06:46:25Z</time></trkpt><trkpt lat="43.509453367482415" lon="10.616982411603086"><ele>292.0</ele><time>2026-04-18T06:46:26Z</time></trkpt><trkpt lat="43.50952830169677" lon="10.617065308625453"><ele>292.0</ele><time>2026-04-18T06:46:27Z</time></trkpt><trkpt lat="43.509584083262375" lon="10.617188271144979"><ele>290.8</ele><time>2026-04-18T06:46:28Z</time></trkpt><trkpt lat="43.50962574132114" lon="10.617321375767343"><ele>289.6</ele><time>2026-04-18T06:46:29Z</time></trkpt><trkpt lat="43.50966345988541" lon="10.617459593350642"><ele>288.40000000000003</ele><time>2026-04-18T06:46:30Z</time></trkpt><trkpt lat="43.50973164666771" lon="10.617572497586362"><ele>287.2</ele><time>2026-04-18T06:46:31Z</time></trkpt><trkpt lat="43.509787637780896" lon="10.617695041010732"><ele>286.0</ele><time>2026-04-18T06:46:32Z</time></trkpt><trkpt lat="43.50983160086303" lon="10.617826133976335"><ele>285.40000000000003</ele><time>2026-04-18T06:46:33Z</time></trkpt><trkpt lat="43.50988097027271" lon="10.617935266355628"><ele>284.8</ele><time>2026-04-18T06:46:34Z</time></trkpt><trkpt lat="43.509941445704094" lon="10.618044901649112"><ele>284.20000000000005</ele><time>2026-04-18T06:46:35Z</time></trkpt><trkpt lat="43.50997882899224" lon="10.618173060948605"><ele>283.6</ele><time>2026-04-18T06:46:36Z</time></trkpt><trkpt lat="43.51001118313848" lon="10.618297783667797"><ele>283.0</ele><time>2026-04-18T06:46:37Z</time></trkpt><trkpt lat="43.51004810542195" lon="10.61841957272088"><ele>283.0</ele><time>2026-04-18T06:46:38Z</time></trkpt><trkpt lat="43.51011742376118" lon="10.618478162224049"><ele>283.0</ele><time>2026-04-18T06:46:39Z</time></trkpt><trkpt lat="43.5101766838166" lon="10.618537757555599"><ele>283.0</ele><time>2026-04-18T06:46:40Z</time></trkpt><trkpt lat="43.510316284413925" lon="10.618501715371961"><ele>283.0</ele><time>2026-04-18T06:46:42Z</time></trkpt><trkpt lat="43.51041628051876" lon="10.618418818349594"><ele>283.0</ele><time>2026-04-18T06:46:43Z</time></trkpt><trkpt lat="43.51051820446133" lon="10.618333490575308"><ele>281.0</ele><time>2026-04-18T06:46:44Z</time></trkpt><trkpt lat="43.51060722027301" lon="10.61827833765244"><ele>279.0</ele><time>2026-04-18T06:46:45Z</time></trkpt><trkpt lat="43.51069137458085" lon="10.618237182507867"><ele>277.0</ele><time>2026-04-18T06:46:46Z</time></trkpt><trkpt lat="43.51079162214278" lon="10.618208432579989"><ele>275.0</ele><time>2026-04-18T06:46:47Z</time></trkpt><trkpt lat="43.51088382307767" lon="10.618201894695515"><ele>273.0</ele><time>2026-04-18T06:46:48Z</time></trkpt><trkpt lat="43.51100142117917" lon="10.618220753977651"><ele>273.0</ele><time>2026-04-18T06:46:49Z</time></trkpt><trkpt lat="43.51111826490938" lon="10.618242463106865"><ele>273.0</ele><time>2026-04-18T06:46:50Z</time></trkpt><trkpt lat="43.511253674555114" lon="10.61826467515027"><ele>273.0</ele><time>2026-04-18T06:46:51Z</time></trkpt><trkpt lat="43.511388539377144" lon="10.618287473926896"><ele>273.0</ele><time>2026-04-18T06:46:52Z</time></trkpt><trkpt lat="43.51152072199016" lon="10.61832083390152"><ele>270.75</ele><time>2026-04-18T06:46:53Z</time></trkpt><trkpt lat="43.511648755561104" lon="10.618368946025724"><ele>268.5</ele><time>2026-04-18T06:46:54Z</time></trkpt><trkpt lat="43.51177859124123" lon="10.61843524687981"><ele>266.25</ele><time>2026-04-18T06:46:55Z</time></trkpt><trkpt lat="43.51190436169832" lon="10.618536081174964"><ele>264.0</ele><time>2026-04-18T06:46:56Z</time></trkpt><trkpt lat="43.5120454291287" lon="10.618632389242405"><ele>261.75</ele><time>2026-04-18T06:46:57Z</time></trkpt><trkpt lat="43.51216319486826" lon="10.61872207560634"><ele>259.5</ele><time>2026-04-18T06:46:58Z</time></trkpt><trkpt lat="43.5122732492569" lon="10.618812683979625"><ele>257.25</ele><time>2026-04-18T06:46:59Z</time></trkpt><trkpt lat="43.51238007661282" lon="10.618886025632376"><ele>255.0</ele><time>2026-04-18T06:47:00Z</time></trkpt><trkpt lat="43.51249461531966" lon="10.618953583771939"><ele>255.0</ele><time>2026-04-18T06:47:01Z</time></trkpt><trkpt lat="43.5126160271871" lon="10.619012173275108"><ele>255.0</ele><time>2026-04-18T06:47:02Z</time></trkpt><trkpt lat="43.51276325531631" lon="10.619079396138543"><ele>255.0</ele><time>2026-04-18T06:47:03Z</time></trkpt><trkpt lat="43.512932150665215" lon="10.619160784418339"><ele>252.0</ele><time>2026-04-18T06:47:04Z</time></trkpt><trkpt lat="43.513125604990414" lon="10.61926882715022"><ele>249.0</ele><time>2026-04-18T06:47:05Z</time></trkpt><trkpt lat="43.51332635157137" lon="10.619366141046042"><ele>246.0</ele><time>2026-04-18T06:47:06Z</time></trkpt><trkpt lat="43.513523577753" lon="10.619453229019994"><ele>244.66666666666669</ele><time>2026-04-18T06:47:07Z</time></trkpt><trkpt lat="43.51370433349489" lon="10.619539814079756"><ele>243.33333333333334</ele><time>2026-04-18T06:47:08Z</time></trkpt><trkpt lat="43.51386099126517" lon="10.619619945074078"><ele>242.0</ele><time>2026-04-18T06:47:08.999Z</time></trkpt><trkpt lat="43.51399556272059" lon="10.619692783812638"><ele>240.8</ele><time>2026-04-18T06:47:09.999Z</time></trkpt><trkpt lat="43.51409782193928" lon="10.619773836816307"><ele>239.6</ele><time>2026-04-18T06:47:10.999Z</time></trkpt><trkpt lat="43.514094427268496" lon="10.619886741052028"><ele>238.40000000000003</ele><time>2026-04-18T06:47:11.999Z</time></trkpt><trkpt lat="43.514075819443455" lon="10.6200021598587"><ele>237.20000000000002</ele><time>2026-04-18T06:47:12.999Z</time></trkpt><trkpt lat="43.51406416859805" lon="10.62013702468073"><ele>236.0</ele><time>2026-04-18T06:47:13.999Z</time></trkpt><trkpt lat="43.51402062461107" lon="10.620281863967534"><ele>235.5</ele><time>2026-04-18T06:47:14.999Z</time></trkpt><trkpt lat="43.51391379725515" lon="10.620450340221282"><ele>235.0</ele><time>2026-04-18T06:47:15.999Z</time></trkpt><trkpt lat="43.51382578727185" lon="10.620595263327118"><ele>234.5</ele><time>2026-04-18T06:47:16.999Z</time></trkpt><trkpt lat="43.51373228714197" lon="10.62072585337853"><ele>234.0</ele><time>2026-04-18T06:47:17.999Z</time></trkpt><trkpt lat="43.513648971024445" lon="10.620841188366171"><ele>234.0</ele><time>2026-04-18T06:47:18.999Z</time></trkpt><trkpt lat="43.51355379451393" lon="10.620955098430272"><ele>233.99999999999997</ele><time>2026-04-18T06:47:19.999Z</time></trkpt><trkpt lat="43.51347642954766" lon="10.621069930503722"><ele>233.99999999999997</ele><time>2026-04-18T06:47:20.999Z</time></trkpt><trkpt lat="43.5134326760131" lon="10.621180152530428"><ele>234.0</ele><time>2026-04-18T06:47:21.999Z</time></trkpt><trkpt lat="43.51342676677137" lon="10.621301354850289"><ele>234.0</ele><time>2026-04-18T06:47:22.999Z</time></trkpt><trkpt lat="43.51346444342612" lon="10.621424736464974"><ele>232.0</ele><time>2026-04-18T06:47:23.999Z</time></trkpt><trkpt lat="43.51354897491961" lon="10.621529426435588"><ele>230.0</ele><time>2026-04-18T06:47:24.999Z</time></trkpt><trkpt lat="43.51367889441877" lon="10.621603857735751"><ele>228.0</ele><time>2026-04-18T06:47:25.999Z</time></trkpt><trkpt lat="43.513814806978694" lon="10.62165465206897"><ele>226.0</ele><time>2026-04-18T06:47:26.999Z</time></trkpt><trkpt lat="43.51395407229989" lon="10.621698237965463"><ele>225.25</ele><time>2026-04-18T06:47:27.999Z</time></trkpt><trkpt lat="43.51407971702843" lon="10.621764957914708"><ele>224.5</ele><time>2026-04-18T06:47:28.999Z</time></trkpt><trkpt lat="43.514209678437105" lon="10.621865540752767"><ele>223.75</ele><time>2026-04-18T06:47:29.999Z</time></trkpt><trkpt lat="43.514348692301205" lon="10.621958496058939"><ele>223.0</ele><time>2026-04-18T06:47:30.999Z</time></trkpt><trkpt lat="43.514500656205705" lon="10.622045248756764"><ele>220.0</ele><time>2026-04-18T06:47:31.999Z</time></trkpt><trkpt lat="43.51465865508049" lon="10.622096629823206"><ele>217.0</ele><time>2026-04-18T06:47:32.999Z</time></trkpt><trkpt lat="43.51484045856028" lon="10.622145580137728"><ele>214.0</ele><time>2026-04-18T06:47:33.999Z</time></trkpt><trkpt lat="43.5150268301773" lon="10.62218380161619"><ele>214.0</ele><time>2026-04-18T06:47:34.999Z</time></trkpt><trkpt lat="43.515221122692815" lon="10.622201319793819"><ele>214.0</ele><time>2026-04-18T06:47:35.999Z</time></trkpt><trkpt lat="43.51541491229414" lon="10.622217161590813"><ele>214.0</ele><time>2026-04-18T06:47:36.999Z</time></trkpt><trkpt lat="43.51559801496892" lon="10.62222093344724"><ele>212.0</ele><time>2026-04-18T06:47:37.999Z</time></trkpt><trkpt lat="43.51577478930681" lon="10.622230907912014"><ele>210.0</ele><time>2026-04-18T06:47:38.999Z</time></trkpt><trkpt lat="43.515942385460725" lon="10.622249851013182"><ele>208.0</ele><time>2026-04-18T06:47:39.999Z</time></trkpt><trkpt lat="43.51609761830747" lon="10.622287150482295"><ele>208.0</ele><time>2026-04-18T06:47:40.999Z</time></trkpt><trkpt lat="43.51623604543835" lon="10.622342973957418"><ele>208.0</ele><time>2026-04-18T06:47:41.999Z</time></trkpt><trkpt lat="43.51637288000762" lon="10.622442550967095"><ele>208.0</ele><time>2026-04-18T06:47:42.999Z</time></trkpt><trkpt lat="43.51649533961296" lon="10.622553527365087"><ele>208.0</ele><time>2026-04-18T06:47:43.999Z</time></trkpt><trkpt lat="43.51658921692848" lon="10.622685374701975"><ele>206.5</ele><time>2026-04-18T06:47:44.999Z</time></trkpt><trkpt lat="43.51668544117689" lon="10.622833482931016"><ele>205.0</ele><time>2026-04-18T06:47:45.999Z</time></trkpt><trkpt lat="43.516759034286736" lon="10.622992236177085"><ele>203.5</ele><time>2026-04-18T06:47:46.999Z</time></trkpt><trkpt lat="43.51682202428907" lon="10.623175548399447"><ele>202.0</ele><time>2026-04-18T06:47:47.999Z</time></trkpt><trkpt lat="43.5168765485692" lon="10.623370930562375"><ele>202.0</ele><time>2026-04-18T06:47:48.999Z</time></trkpt><trkpt lat="43.51691418331444" lon="10.623563295240164"><ele>202.0</ele><time>2026-04-18T06:47:49.999Z</time></trkpt><trkpt lat="43.51696698930442" lon="10.62372875400877"><ele>202.0</ele><time>2026-04-18T06:47:50.999Z</time></trkpt><trkpt lat="43.51703710392445" lon="10.623880131180048"><ele>202.0</ele><time>2026-04-18T06:47:51.999Z</time></trkpt><trkpt lat="43.51713194515884" lon="10.623998232195735"><ele>198.66666666666666</ele><time>2026-04-18T06:47:52.999Z</time></trkpt><trkpt lat="43.51724744778454" lon="10.624090014035463"><ele>195.33333333333331</ele><time>2026-04-18T06:47:53.999Z</time></trkpt><trkpt lat="43.51740360264063" lon="10.62414265238738"><ele>192.0</ele><time>2026-04-18T06:47:54.999Z</time></trkpt><trkpt lat="43.51759035144329" lon="10.624180957684874"><ele>192.0</ele><time>2026-04-18T06:47:55.999Z</time></trkpt><trkpt lat="43.51778795481056" lon="10.624226974333286"><ele>192.0</ele><time>2026-04-18T06:47:56.999Z</time></trkpt><trkpt lat="43.51799804721355" lon="10.6242867373029"><ele>192.0</ele><time>2026-04-18T06:47:57.999Z</time></trkpt><trkpt lat="43.5182167310673" lon="10.624344656253815"><ele>188.0</ele><time>2026-04-18T06:47:58.999Z</time></trkpt><trkpt lat="43.51841672327697" lon="10.624398970986366"><ele>184.0</ele><time>2026-04-18T06:47:59.999Z</time></trkpt><trkpt lat="43.51862648040384" lon="10.624463344002724"><ele>180.0</ele><time>2026-04-18T06:48:00.999Z</time></trkpt><trkpt lat="43.518802458460925" lon="10.624513719240785"><ele>178.0</ele><time>2026-04-18T06:48:01.999Z</time></trkpt><trkpt lat="43.518953416537045" lon="10.624550683433771"><ele>176.0</ele><time>2026-04-18T06:48:02.999Z</time></trkpt><trkpt lat="43.51910714064121" lon="10.62459267676866"><ele>174.0</ele><time>2026-04-18T06:48:03.999Z</time></trkpt><trkpt lat="43.51921740457743" lon="10.62462737784779"><ele>172.0</ele><time>2026-04-18T06:48:04.999Z</time></trkpt><trkpt lat="43.51931882560581" lon="10.624667527163982"><ele>172.0</ele><time>2026-04-18T06:48:05.999Z</time></trkpt><trkpt lat="43.51939141288727" lon="10.624702228243113"><ele>172.0</ele><time>2026-04-18T06:48:06.999Z</time></trkpt><trkpt lat="43.519482649903296" lon="10.624738521883845"><ele>172.0</ele><time>2026-04-18T06:48:08.999Z</time></trkpt><trkpt lat="43.519575647118984" lon="10.624767271811724"><ele>172.0</ele><time>2026-04-18T06:48:10.999Z</time></trkpt><trkpt lat="43.5196404392305" lon="10.624802391986012"><ele>172.0</ele><time>2026-04-18T06:48:11.999Z</time></trkpt><trkpt lat="43.51971948057741" lon="10.624885959560633"><ele>172.0</ele><time>2026-04-18T06:48:12.999Z</time></trkpt><trkpt lat="43.51982509255737" lon="10.624998277063131"><ele>169.66666666666669</ele><time>2026-04-18T06:48:13.999Z</time></trkpt><trkpt lat="43.519960711750684" lon="10.625121407220721"><ele>167.33333333333334</ele><time>2026-04-18T06:48:14.999Z</time></trkpt><trkpt lat="43.52009666622013" lon="10.625239340598345"><ele>165.0</ele><time>2026-04-18T06:48:15.999Z</time></trkpt><trkpt lat="43.52023027375668" lon="10.625340593988659"><ele>164.8</ele><time>2026-04-18T06:48:16.999Z</time></trkpt><trkpt lat="43.520359438884554" lon="10.62542273663974"><ele>164.6</ele><time>2026-04-18T06:48:17.999Z</time></trkpt><trkpt lat="43.520453106652496" lon="10.625510411346914"><ele>164.39999999999998</ele><time>2026-04-18T06:48:18.999Z</time></trkpt><trkpt lat="43.52053332146585" lon="10.625590123246075"><ele>164.2</ele><time>2026-04-18T06:48:19.999Z</time></trkpt><trkpt lat="43.52059459317803" lon="10.62568760477996"><ele>164.0</ele><time>2026-04-18T06:48:20.999Z</time></trkpt><trkpt lat="43.520655152428446" lon="10.625807885090472"><ele>164.0</ele><time>2026-04-18T06:48:21.999Z</time></trkpt><trkpt lat="43.52069152988821" lon="10.625956999147894"><ele>164.0</ele><time>2026-04-18T06:48:22.999Z</time></trkpt><trkpt lat="43.520749867934285" lon="10.626090271408321"><ele>164.0</ele><time>2026-04-18T06:48:23.999Z</time></trkpt><trkpt lat="43.520803805481194" lon="10.626208037147881"><ele>164.0</ele><time>2026-04-18T06:48:24.999Z</time></trkpt><trkpt lat="43.5208683042261" lon="10.626285905028345"><ele>164.0</ele><time>2026-04-18T06:48:25.999Z</time></trkpt><trkpt lat="43.52095354818135" lon="10.626346170912148"><ele>164.0</ele><time>2026-04-18T06:48:26.999Z</time></trkpt><trkpt lat="43.52104859896332" lon="10.626405598605634"><ele>164.0</ele><time>2026-04-18T06:48:27.999Z</time></trkpt><trkpt lat="43.52115827616632" lon="10.626457314948203"><ele>164.0</ele><time>2026-04-18T06:48:28.999Z</time></trkpt><trkpt lat="43.52127256341606" lon="10.626520263041021"><ele>164.0</ele><time>2026-04-18T06:48:29.999Z</time></trkpt><trkpt lat="43.52139376573592" lon="10.626595616350533"><ele>163.25</ele><time>2026-04-18T06:48:30.999Z</time></trkpt><trkpt lat="43.52151890755027" lon="10.62666870654619"><ele>162.5</ele><time>2026-04-18T06:48:31.999Z</time></trkpt><trkpt lat="43.521653856191335" lon="10.626750933016302"><ele>161.75</ele><time>2026-04-18T06:48:32.999Z</time></trkpt><trkpt lat="43.521802676882146" lon="10.62682167627907"><ele>161.0</ele><time>2026-04-18T06:48:33.999Z</time></trkpt><trkpt lat="43.52194466632187" lon="10.626898538331153"><ele>159.66666666666666</ele><time>2026-04-18T06:48:34.999Z</time></trkpt><trkpt lat="43.522092439274786" lon="10.626959726224305"><ele>158.33333333333334</ele><time>2026-04-18T06:48:35.999Z</time></trkpt><trkpt lat="43.522239667403994" lon="10.627014040956857"><ele>157.0</ele><time>2026-04-18T06:48:36.999Z</time></trkpt><trkpt lat="43.52239858828813" lon="10.627065338204266"><ele>157.0</ele><time>2026-04-18T06:48:37.999Z</time></trkpt><trkpt lat="43.522566645446716" lon="10.627120323489072"><ele>157.0</ele><time>2026-04-18T06:48:38.999Z</time></trkpt><trkpt lat="43.52272477005005" lon="10.62717203983164"><ele>157.0</ele><time>2026-04-18T06:48:39.999Z</time></trkpt><trkpt lat="43.522878158878086" lon="10.627219984317781"><ele>155.25</ele><time>2026-04-18T06:48:40.999Z</time></trkpt><trkpt lat="43.523014155257044" lon="10.62726189383364"><ele>153.5</ele><time>2026-04-18T06:48:41.999Z</time></trkpt><trkpt lat="43.52312902924001" lon="10.627294667075041"><ele>151.75</ele><time>2026-04-18T06:48:42.999Z</time></trkpt><trkpt lat="43.52322780996889" lon="10.627343282113436"><ele>150.0</ele><time>2026-04-18T06:48:43.999Z</time></trkpt><trkpt lat="43.52331133563399" lon="10.627418132508758"><ele>150.0</ele><time>2026-04-18T06:48:44.999Z</time></trkpt><trkpt lat="43.523392933461366" lon="10.627514105300072"><ele>150.0</ele><time>2026-04-18T06:48:45.999Z</time></trkpt><trkpt lat="43.5234715138036" lon="10.627623992050651"><ele>150.0</ele><time>2026-04-18T06:48:46.999Z</time></trkpt><trkpt lat="43.52354992650777" lon="10.627719461927775"><ele>150.0</ele><time>2026-04-18T06:48:47.999Z</time></trkpt><trkpt lat="43.52364292372346" lon="10.627767993147138"><ele>150.0</ele><time>2026-04-18T06:48:48.999Z</time></trkpt><trkpt lat="43.52374748796553" lon="10.62777830288804"><ele>148.0</ele><time>2026-04-18T06:48:49.999Z</time></trkpt><trkpt lat="43.52387074385167" lon="10.627775117764834"><ele>146.0</ele><time>2026-04-18T06:48:50.999Z</time></trkpt><trkpt lat="43.52398750376285" lon="10.627778135249976"><ele>144.0</ele><time>2026-04-18T06:48:51.999Z</time></trkpt><trkpt lat="43.524088338058" lon="10.627787271524433"><ele>142.0</ele><time>2026-04-18T06:48:52.999Z</time></trkpt><trkpt lat="43.524217377457326" lon="10.627787942076687"><ele>142.0</ele><time>2026-04-18T06:48:54.998Z</time></trkpt><trkpt lat="43.52430060975582" lon="10.627716025347475"><ele>142.0</ele><time>2026-04-18T06:48:56.998Z</time></trkpt><trkpt lat="43.52434939243228" lon="10.627659363682035"><ele>142.0</ele><time>2026-04-18T06:48:57.998Z</time></trkpt><trkpt lat="43.52441724393845" lon="10.627604294578198"><ele>142.0</ele><time>2026-04-18T06:48:58.998Z</time></trkpt><trkpt lat="43.524501272517746" lon="10.627572359527115"><ele>142.0</ele><time>2026-04-18T06:48:59.998Z</time></trkpt><trkpt lat="43.52461048871607" lon="10.627553667883042"><ele>142.0</ele><time>2026-04-18T06:49:00.998Z</time></trkpt><trkpt lat="43.52471408903927" lon="10.627536652619604"><ele>141.6</ele><time>2026-04-18T06:49:01.998Z</time></trkpt><trkpt lat="43.52481639016748" lon="10.627526594335798"><ele>141.2</ele><time>2026-04-18T06:49:02.998Z</time></trkpt><trkpt lat="43.5249137040633" lon="10.62751938589907"><ele>140.8</ele><time>2026-04-18T06:49:03.998Z</time></trkpt><trkpt lat="43.52499706209034" lon="10.627494491646651"><ele>140.4</ele><time>2026-04-18T06:49:04.998Z</time></trkpt><trkpt lat="43.525097309652274" lon="10.627468675384883"><ele>140.0</ele><time>2026-04-18T06:49:05.998Z</time></trkpt><trkpt lat="43.52518515199751" lon="10.627438500533465"><ele>140.0</ele><time>2026-04-18T06:49:06.998Z</time></trkpt><trkpt lat="43.52527198851437" lon="10.627405643473033"><ele>140.0</ele><time>2026-04-18T06:49:07.998Z</time></trkpt><trkpt lat="43.52536071095944" lon="10.62736155466235"><ele>140.0</ele><time>2026-04-18T06:49:08.998Z</time></trkpt><trkpt lat="43.525458988774126" lon="10.627307491386894"><ele>140.0</ele><time>2026-04-18T06:49:09.998Z</time></trkpt><trkpt lat="43.525559068697994" lon="10.627239765609268"><ele>140.0</ele><time>2026-04-18T06:49:10.998Z</time></trkpt><trkpt lat="43.52565328128964" lon="10.627176146964194"><ele>140.0</ele><time>2026-04-18T06:49:11.998Z</time></trkpt><trkpt lat="43.52572666485191" lon="10.627127783382894"><ele>140.0</ele><time>2026-04-18T06:49:12.998Z</time></trkpt><trkpt lat="43.52578441616476" lon="10.62708361075318"><ele>140.0</ele><time>2026-04-18T06:49:13.998Z</time></trkpt><trkpt lat="43.52584535260082" lon="10.62703859993315"><ele>140.0</ele><time>2026-04-18T06:49:14.998Z</time></trkpt><trkpt lat="43.52592418440015" lon="10.627003647396924"><ele>140.0</ele><time>2026-04-18T06:49:15.998Z</time></trkpt><trkpt lat="43.52600569840849" lon="10.626977831135155"><ele>140.0</ele><time>2026-04-18T06:49:16.998Z</time></trkpt><trkpt lat="43.526097522157734" lon="10.626948075378897"><ele>139.66666666666666</ele><time>2026-04-18T06:49:17.998Z</time></trkpt><trkpt lat="43.52618176028461" lon="10.626916643242003"><ele>139.33333333333331</ele><time>2026-04-18T06:49:18.998Z</time></trkpt><trkpt lat="43.52625430565656" lon="10.626889904970886"><ele>139.0</ele><time>2026-04-18T06:49:19.998Z</time></trkpt><trkpt lat="43.526330706703966" lon="10.626861155043008"><ele>138.66666666666666</ele><time>2026-04-18T06:49:20.998Z</time></trkpt><trkpt lat="43.5264523700285" lon="10.62681924552715"><ele>138.33333333333334</ele><time>2026-04-18T06:49:22.998Z</time></trkpt><trkpt lat="43.526514479931" lon="10.626798123131158"><ele>138.0</ele><time>2026-04-18T06:49:23.998Z</time></trkpt><trkpt lat="43.52657550018609" lon="10.626774150888087"><ele>137.66666666666666</ele><time>2026-04-18T06:49:24.998Z</time></trkpt><trkpt lat="43.526637987274235" lon="10.626757135624649"><ele>137.33333333333334</ele><time>2026-04-18T06:49:25.998Z</time></trkpt><trkpt lat="43.52670671888024" lon="10.62674984336889"><ele>137.0</ele><time>2026-04-18T06:49:26.998Z</time></trkpt><trkpt lat="43.52678278465152" lon="10.626744898046018"><ele>136.66666666666669</ele><time>2026-04-18T06:49:27.998Z</time></trkpt><trkpt lat="43.5268617421794" lon="10.62672838569677"><ele>136.33333333333334</ele><time>2026-04-18T06:49:28.998Z</time></trkpt><trkpt lat="43.526984620879894" lon="10.62669318170345"><ele>136.0</ele><time>2026-04-18T06:49:30.998Z</time></trkpt><trkpt lat="43.527086377184396" lon="10.626613888899447"><ele>134.6</ele><time>2026-04-18T06:49:32.998Z</time></trkpt><trkpt lat="43.5271810088712" lon="10.626511797318818"><ele>133.2</ele><time>2026-04-18T06:49:34.998Z</time></trkpt><trkpt lat="43.52727140769691" lon="10.626408029357554"><ele>131.8</ele><time>2026-04-18T06:49:36.998Z</time></trkpt><trkpt lat="43.52735610682846" lon="10.626332424590947"><ele>130.4</ele><time>2026-04-18T06:49:38.998Z</time></trkpt><trkpt lat="43.5274444939974" lon="10.62628565357125"><ele>129.0</ele><time>2026-04-18T06:49:40.998Z</time></trkpt><trkpt lat="43.52751502771259" lon="10.62628221699095"><ele>129.0</ele><time>2026-04-18T06:49:42.998Z</time></trkpt><trkpt lat="43.52760140322477" lon="10.626276517296793"><ele>129.0</ele><time>2026-04-18T06:49:44.998Z</time></trkpt><trkpt lat="43.52772130634964" lon="10.626274505640032"><ele>129.0</ele><time>2026-04-18T06:49:46.998Z</time></trkpt><trkpt lat="43.52779196579338" lon="10.626283558095457"><ele>129.0</ele><time>2026-04-18T06:49:47.998Z</time></trkpt><trkpt lat="43.52785801519037" lon="10.626287497589948"><ele>129.0</ele><time>2026-04-18T06:49:48.998Z</time></trkpt><trkpt lat="43.52793651171357" lon="10.626287078494789"><ele>129.0</ele><time>2026-04-18T06:49:49.998Z</time></trkpt><trkpt lat="43.52801580451757" lon="10.626295628036024"><ele>128.0</ele><time>2026-04-18T06:49:50.998Z</time></trkpt><trkpt lat="43.52809878535897" lon="10.626285485933186"><ele>127.0</ele><time>2026-04-18T06:49:51.998Z</time></trkpt><trkpt lat="43.528177365701204" lon="10.626275511468412"><ele>126.0</ele><time>2026-04-18T06:49:52.998Z</time></trkpt><trkpt lat="43.528247480321234" lon="10.626255730176927"><ele>125.0</ele><time>2026-04-18T06:49:53.998Z</time></trkpt><trkpt lat="43.52831378117532" lon="10.626248186464073"><ele>124.0</ele><time>2026-04-18T06:49:54.998Z</time></trkpt><trkpt lat="43.528386787551945" lon="10.6262450851599"><ele>123.0</ele><time>2026-04-18T06:49:55.998Z</time></trkpt><trkpt lat="43.52846926547915" lon="10.626272242526175"><ele>123.0</ele><time>2026-04-18T06:49:56.998Z</time></trkpt><trkpt lat="43.52854193657965" lon="10.62630082481599"><ele>123.0</ele><time>2026-04-18T06:49:57.998Z</time></trkpt><trkpt lat="43.52860538758666" lon="10.62632471324003"><ele>123.0</ele><time>2026-04-18T06:49:58.998Z</time></trkpt><trkpt lat="43.52872394960702" lon="10.62637751923001"><ele>123.0</ele><time>2026-04-18T06:50:00.998Z</time></trkpt><trkpt lat="43.528801398392325" lon="10.626397216702463"><ele>123.0</ele><time>2026-04-18T06:50:01.998Z</time></trkpt><trkpt lat="43.5288761230591" lon="10.626411046842696"><ele>123.0</ele><time>2026-04-18T06:50:02.998Z</time></trkpt><trkpt lat="43.52898697372854" lon="10.62640291639662"><ele>123.2</ele><time>2026-04-18T06:50:04.998Z</time></trkpt><trkpt lat="43.52910599675358" lon="10.626338291923167"><ele>123.4</ele><time>2026-04-18T06:50:06.998Z</time></trkpt><trkpt lat="43.529164418618684" lon="10.626301495368244"><ele>123.60000000000001</ele><time>2026-04-18T06:50:07.998Z</time></trkpt><trkpt lat="43.52928113662035" lon="10.626238044361235"><ele>123.80000000000001</ele><time>2026-04-18T06:50:09.998Z</time></trkpt><trkpt lat="43.529351376968926" lon="10.626226225877764"><ele>124.0</ele><time>2026-04-18T06:50:10.998Z</time></trkpt><trkpt lat="43.529438297304814" lon="10.62622069382167"><ele>124.00000000000001</ele><time>2026-04-18T06:50:11.998Z</time></trkpt><trkpt lat="43.5295323422584" lon="10.626213233927848"><ele>124.0</ele><time>2026-04-18T06:50:12.998Z</time></trkpt><trkpt lat="43.52961829867542" lon="10.626190686608316"><ele>124.0</ele><time>2026-04-18T06:50:13.998Z</time></trkpt><trkpt lat="43.52970999669612" lon="10.626155147338869"><ele>124.0</ele><time>2026-04-18T06:50:14.998Z</time></trkpt><trkpt lat="43.529785433824664" lon="10.626135701323511"><ele>124.00000000000001</ele><time>2026-04-18T06:50:15.998Z</time></trkpt><trkpt lat="43.52986925285638" lon="10.62611415983236"><ele>124.0</ele><time>2026-04-18T06:50:16.998Z</time></trkpt><trkpt lat="43.52994272023768" lon="10.626094713817002"><ele>123.16666666666667</ele><time>2026-04-18T06:50:17.998Z</time></trkpt><trkpt lat="43.530054953921145" lon="10.626063616956236"><ele>122.33333333333334</ele><time>2026-04-18T06:50:19.998Z</time></trkpt><trkpt lat="43.530121212865716" lon="10.626060012737872"><ele>121.5</ele><time>2026-04-18T06:50:20.998Z</time></trkpt><trkpt lat="43.5301885614577" lon="10.62606629916525"><ele>120.66666666666666</ele><time>2026-04-18T06:50:21.998Z</time></trkpt><trkpt lat="43.530266303609615" lon="10.62607258559263"><ele>119.83333333333333</ele><time>2026-04-18T06:50:22.998Z</time></trkpt><trkpt lat="43.53034706324667" lon="10.62607945875323"><ele>119.0</ele><time>2026-04-18T06:50:23.998Z</time></trkpt><trkpt lat="43.53044110820026" lon="10.626077950010659"><ele>119.0</ele><time>2026-04-18T06:50:24.998Z</time></trkpt><trkpt lat="43.53051989809007" lon="10.626083565885784"><ele>119.0</ele><time>2026-04-18T06:50:25.998Z</time></trkpt><trkpt lat="43.53061264384866" lon="10.62610393391049"><ele>119.0</ele><time>2026-04-18T06:50:26.998Z</time></trkpt><trkpt lat="43.53071993220926" lon="10.626116506765248"><ele>119.0</ele><time>2026-04-18T06:50:27.998Z</time></trkpt><trkpt lat="43.53082445454181" lon="10.626128241429688"><ele>119.0</ele><time>2026-04-18T06:50:28.998Z</time></trkpt><trkpt lat="43.530920301604574" lon="10.626133941123845"><ele>118.66666666666666</ele><time>2026-04-18T06:50:29.998Z</time></trkpt><trkpt lat="43.5310036177221" lon="10.626152213672759"><ele>118.33333333333333</ele><time>2026-04-18T06:50:30.998Z</time></trkpt><trkpt lat="43.531086724292045" lon="10.626170570040705"><ele>118.0</ele><time>2026-04-18T06:50:31.998Z</time></trkpt><trkpt lat="43.531174650456315" lon="10.626199068511488"><ele>117.66666666666666</ele><time>2026-04-18T06:50:32.998Z</time></trkpt><trkpt lat="43.53125000376583" lon="10.626221029097797"><ele>117.33333333333333</ele><time>2026-04-18T06:50:33.998Z</time></trkpt><trkpt lat="43.53132925466032" lon="10.626245755712153"><ele>117.0</ele><time>2026-04-18T06:50:34.998Z</time></trkpt><trkpt lat="43.531412277411235" lon="10.62626369298494"><ele>118.6</ele><time>2026-04-18T06:50:35.998Z</time></trkpt><trkpt lat="43.53150963321657" lon="10.626282636086108"><ele>120.19999999999999</ele><time>2026-04-18T06:50:36.998Z</time></trkpt><trkpt lat="43.531622411723745" lon="10.62629445456958"><ele>121.8</ele><time>2026-04-18T06:50:37.998Z</time></trkpt><trkpt lat="43.531729155260635" lon="10.626313313851716"><ele>123.4</ele><time>2026-04-18T06:50:38.998Z</time></trkpt><trkpt lat="43.53182915136547" lon="10.626338124285104"><ele>125.0</ele><time>2026-04-18T06:50:39.998Z</time></trkpt><trkpt lat="43.53191628124894" lon="10.626373244459392"><ele>125.0</ele><time>2026-04-18T06:50:40.998Z</time></trkpt><trkpt lat="43.53199708279551" lon="10.626409454281093"><ele>125.0</ele><time>2026-04-18T06:50:41.997Z</time></trkpt><trkpt lat="43.53206925098182" lon="10.626432839790942"><ele>125.0</ele><time>2026-04-18T06:50:42.997Z</time></trkpt><trkpt lat="43.53213701866896" lon="10.626453626910807"><ele>125.0</ele><time>2026-04-18T06:50:43.997Z</time></trkpt><trkpt lat="43.532204870175136" lon="10.626474581668736"><ele>125.0</ele><time>2026-04-18T06:50:44.997Z</time></trkpt><trkpt lat="43.53227523625226" lon="10.626498805368902"><ele>125.0</ele><time>2026-04-18T06:50:45.997Z</time></trkpt><trkpt lat="43.53234375831069" lon="10.62652705238259"><ele>125.0</ele><time>2026-04-18T06:50:46.997Z</time></trkpt><trkpt lat="43.532405700575126" lon="10.626553790653707"><ele>125.0</ele><time>2026-04-18T06:50:48.997Z</time></trkpt><trkpt lat="43.53247585710467" lon="10.626604501167895"><ele>125.0</ele><time>2026-04-18T06:50:52.997Z</time></trkpt><trkpt lat="43.53251634169699" lon="10.626700222502114"><ele>125.0</ele><time>2026-04-18T06:50:55.997Z</time></trkpt><trkpt lat="43.53255192287595" lon="10.62677381561196"><ele>125.0</ele><time>2026-04-18T06:51:04.997Z</time></trkpt><trkpt lat="43.53260342967094" lon="10.626830393458368"><ele>125.0</ele><time>2026-04-18T06:51:07.997Z</time></trkpt><trkpt lat="43.53267274801017" lon="10.626874230811955"><ele>125.0</ele><time>2026-04-18T06:51:10.997Z</time></trkpt><trkpt lat="43.53273770775975" lon="10.626879762868048"><ele>125.0</ele><time>2026-04-18T06:51:12.997Z</time></trkpt><trkpt lat="43.53280275132836" lon="10.626872722069384"><ele>124.99999999999999</ele><time>2026-04-18T06:51:14.997Z</time></trkpt><trkpt lat="43.53286511268796" lon="10.626888815323474"><ele>125.0</ele><time>2026-04-18T06:51:16.997Z</time></trkpt><trkpt lat="43.5329450341347" lon="10.626911865557195"><ele>125.0</ele><time>2026-04-18T06:51:20.997Z</time></trkpt><trkpt lat="43.53301628031166" lon="10.626921672383906"><ele>125.0</ele><time>2026-04-18T06:51:23.997Z</time></trkpt><trkpt lat="43.53309678849162" lon="10.626952517787577"><ele>124.99999999999999</ele><time>2026-04-18T06:52:40.996Z</time></trkpt><trkpt lat="43.53320202328594" lon="10.62696584501362"><ele>125.0</ele><time>2026-04-18T06:52:43.996Z</time></trkpt><trkpt lat="43.533286638598454" lon="10.62696978450811"><ele>124.2</ele><time>2026-04-18T06:52:45.996Z</time></trkpt><trkpt lat="43.53337569631965" lon="10.626967186118128"><ele>123.4</ele><time>2026-04-18T06:52:47.996Z</time></trkpt><trkpt lat="43.5334759857911" lon="10.62695268542564"><ele>122.6</ele><time>2026-04-18T06:52:49.996Z</time></trkpt><trkpt lat="43.53357870601447" lon="10.62687347644067"><ele>121.8</ele><time>2026-04-18T06:52:51.996Z</time></trkpt><trkpt lat="43.53364450395436" lon="10.626816563318135"><ele>121.0</ele><time>2026-04-18T06:52:52.996Z</time></trkpt><trkpt lat="43.53370942179443" lon="10.62676845119393"><ele>121.33333333333334</ele><time>2026-04-18T06:52:53.996Z</time></trkpt><trkpt lat="43.53377660274835" lon="10.626718411231996"><ele>121.66666666666667</ele><time>2026-04-18T06:52:54.996Z</time></trkpt><trkpt lat="43.53383766491295" lon="10.626676669354202"><ele>122.0</ele><time>2026-04-18T06:52:55.996Z</time></trkpt><trkpt lat="43.53390019391061" lon="10.626633670190932"><ele>122.33333333333334</ele><time>2026-04-18T06:52:56.996Z</time></trkpt><trkpt lat="43.533957107033146" lon="10.626591341579916"><ele>122.66666666666667</ele><time>2026-04-18T06:52:57.996Z</time></trkpt><trkpt lat="43.53405500766219" lon="10.626490088189604"><ele>123.0</ele><time>2026-04-18T06:52:59.996Z</time></trkpt><trkpt lat="43.53410144340576" lon="10.626423284421326"><ele>123.0</ele><time>2026-04-18T06:53:00.996Z</time></trkpt><trkpt lat="43.53417885028155" lon="10.626287832866074"><ele>123.00000000000001</ele><time>2026-04-18T06:53:02.996Z</time></trkpt><trkpt lat="43.53425797544749" lon="10.626135952780606"><ele>123.00000000000001</ele><time>2026-04-18T06:53:04.996Z</time></trkpt><trkpt lat="43.53429384999306" lon="10.626063030223014"><ele>123.0</ele><time>2026-04-18T06:53:05.996Z</time></trkpt><trkpt lat="43.53435243949623" lon="10.625959513718845"><ele>123.0</ele><time>2026-04-18T06:53:07.996Z</time></trkpt><trkpt lat="43.53440407201977" lon="10.625871419916512"><ele>122.5</ele><time>2026-04-18T06:53:09.996Z</time></trkpt><trkpt lat="43.53445809338571" lon="10.625772932554247"><ele>122.0</ele><time>2026-04-18T06:53:11.996Z</time></trkpt><trkpt lat="43.53453667372794" lon="10.625673020268442"><ele>121.5</ele><time>2026-04-18T06:53:13.996Z</time></trkpt><trkpt lat="43.534587845246804" lon="10.625620968649747"><ele>121.0</ele><time>2026-04-18T06:53:14.996Z</time></trkpt><trkpt lat="43.534648739773345" lon="10.62557470054424"><ele>120.5</ele><time>2026-04-18T06:53:15.996Z</time></trkpt><trkpt lat="43.534701755310905" lon="10.625526169324877"><ele>120.0</ele><time>2026-04-18T06:53:16.996Z</time></trkpt><trkpt lat="43.53478662208052" lon="10.625474955896498"><ele>119.0</ele><time>2026-04-18T06:53:18.996Z</time></trkpt><trkpt lat="43.534862017299545" lon="10.625439081350924"><ele>118.0</ele><time>2026-04-18T06:53:20.996Z</time></trkpt><trkpt lat="43.534948518540276" lon="10.625380324209692"><ele>117.0</ele><time>2026-04-18T06:53:22.996Z</time></trkpt><trkpt lat="43.53504570670755" lon="10.625329529876472"><ele>116.0</ele><time>2026-04-18T06:53:24.996Z</time></trkpt><trkpt lat="43.53513162121506" lon="10.62526985072589"><ele>115.0</ele><time>2026-04-18T06:53:26.996Z</time></trkpt><trkpt lat="43.53521661371322" lon="10.625202795500517"><ele>114.8</ele><time>2026-04-18T06:53:28.996Z</time></trkpt><trkpt lat="43.53531392760904" lon="10.625122496868133"><ele>114.6</ele><time>2026-04-18T06:53:30.996Z</time></trkpt><trkpt lat="43.535411283414376" lon="10.625065080831408"><ele>114.4</ele><time>2026-04-18T06:53:32.996Z</time></trkpt><trkpt lat="43.53549703028382" lon="10.625008083889842"><ele>114.2</ele><time>2026-04-18T06:53:34.996Z</time></trkpt><trkpt lat="43.53559417654158" lon="10.624962486336589"><ele>114.0</ele><time>2026-04-18T06:53:36.996Z</time></trkpt><trkpt lat="43.53569647766979" lon="10.624907668689847"><ele>113.0</ele><time>2026-04-18T06:53:38.996Z</time></trkpt><trkpt lat="43.53577908132554" lon="10.624873889620066"><ele>112.0</ele><time>2026-04-18T06:53:40.996Z</time></trkpt><trkpt lat="43.53587459311218" lon="10.624861316765308"><ele>111.0</ele><time>2026-04-18T06:53:42.996Z</time></trkpt><trkpt lat="43.53596193254323" lon="10.624854946518898"><ele>110.0</ele><time>2026-04-18T06:53:44.996Z</time></trkpt><trkpt lat="43.53603892032386" lon="10.624888390312552"><ele>109.0</ele><time>2026-04-18T06:53:46.996Z</time></trkpt><trkpt lat="43.53613598276259" lon="10.624939017007708"><ele>108.16666666666667</ele><time>2026-04-18T06:53:48.996Z</time></trkpt><trkpt lat="43.53625789754422" lon="10.624967180202365"><ele>107.33333333333334</ele><time>2026-04-18T06:53:50.996Z</time></trkpt><trkpt lat="43.53632331829847" lon="10.624984866018057"><ele>106.5</ele><time>2026-04-18T06:53:51.996Z</time></trkpt><trkpt lat="43.53639129553319" lon="10.624993164102197"><ele>105.66666666666666</ele><time>2026-04-18T06:53:52.996Z</time></trkpt><trkpt lat="43.536483328830016" lon="10.625010263184667"><ele>104.83333333333333</ele><time>2026-04-18T06:53:54.996Z</time></trkpt><trkpt lat="43.53654665410848" lon="10.625014873231411"><ele>104.0</ele><time>2026-04-18T06:53:55.996Z</time></trkpt><trkpt lat="43.536668694618655" lon="10.625036247084498"><ele>104.0</ele><time>2026-04-18T06:53:57.996Z</time></trkpt><trkpt lat="43.536782814230335" lon="10.625070109973311"><ele>104.0</ele><time>2026-04-18T06:53:59.996Z</time></trkpt><trkpt lat="43.53687899656923" lon="10.625104643414378"><ele>104.0</ele><time>2026-04-18T06:54:01.996Z</time></trkpt><trkpt lat="43.53698967960061" lon="10.625145128006697"><ele>104.0</ele><time>2026-04-18T06:54:03.996Z</time></trkpt><trkpt lat="43.53706168014885" lon="10.625161556536913"><ele>104.0</ele><time>2026-04-18T06:54:04.996Z</time></trkpt><trkpt lat="43.537129531655026" lon="10.625188630084157"><ele>103.28571428571428</ele><time>2026-04-18T06:54:05.996Z</time></trkpt><trkpt lat="43.537191054824305" lon="10.62520975248015"><ele>102.57142857142858</ele><time>2026-04-18T06:54:06.996Z</time></trkpt><trkpt lat="43.537259451154185" lon="10.62522886321938"><ele>101.85714285714286</ele><time>2026-04-18T06:54:07.996Z</time></trkpt><trkpt lat="43.5373321641642" lon="10.625244369740248"><ele>101.14285714285714</ele><time>2026-04-18T06:54:08.996Z</time></trkpt><trkpt lat="43.53739557326169" lon="10.625258786613703"><ele>100.42857142857142</ele><time>2026-04-18T06:54:09.996Z</time></trkpt><trkpt lat="43.53746254466803" lon="10.625278400267124"><ele>99.71428571428572</ele><time>2026-04-18T06:54:10.996Z</time></trkpt><trkpt lat="43.53755855936886" lon="10.625317879031062"><ele>99.0</ele><time>2026-04-18T06:54:12.996Z</time></trkpt><trkpt lat="43.53763659488739" lon="10.625365907336237"><ele>99.33333333333333</ele><time>2026-04-18T06:54:15.995Z</time></trkpt><trkpt lat="43.5376997944373" lon="10.625377893457772"><ele>99.66666666666666</ele><time>2026-04-18T06:54:18.995Z</time></trkpt><trkpt lat="43.537770579609585" lon="10.62538024039066"><ele>100.0</ele><time>2026-04-18T06:55:25Z</time></trkpt><trkpt lat="43.53787602395148" lon="10.625410918156268"><ele>100.33333333333333</ele><time>2026-04-18T06:55:27Z</time></trkpt><trkpt lat="43.53794634811909" lon="10.625427095229389"><ele>100.66666666666666</ele><time>2026-04-18T06:55:28Z</time></trkpt><trkpt lat="43.538020192686034" lon="10.625438159341575"><ele>101.0</ele><time>2026-04-18T06:55:29Z</time></trkpt><trkpt lat="43.538087960373176" lon="10.625443523759605"><ele>100.99999999999999</ele><time>2026-04-18T06:55:30Z</time></trkpt><trkpt lat="43.53815245911808" lon="10.62543447130418"><ele>101.0</ele><time>2026-04-18T06:55:31Z</time></trkpt><trkpt lat="43.53826758455814" lon="10.625375462705852"><ele>101.0</ele><time>2026-04-18T06:55:33Z</time></trkpt><trkpt lat="43.53833334058852" lon="10.625317627573967"><ele>101.0</ele><time>2026-04-18T06:55:34Z</time></trkpt><trkpt lat="43.53839469611974" lon="10.625265659774303"><ele>100.99999999999999</ele><time>2026-04-18T06:55:35Z</time></trkpt><trkpt lat="43.53844230532975" lon="10.62519223430252"><ele>101.0</ele><time>2026-04-18T06:55:36Z</time></trkpt><trkpt lat="43.53854024786831" lon="10.625069020325899"><ele>101.16666666666666</ele><time>2026-04-18T06:55:38Z</time></trkpt><trkpt lat="43.538594436872316" lon="10.625000121081829"><ele>101.33333333333333</ele><time>2026-04-18T06:55:39Z</time></trkpt><trkpt lat="43.53863705884994" lon="10.624908506880164"><ele>101.5</ele><time>2026-04-18T06:55:40Z</time></trkpt><trkpt lat="43.53868839800687" lon="10.62483692542708"><ele>101.66666666666666</ele><time>2026-04-18T06:55:41Z</time></trkpt><trkpt lat="43.538742377463294" lon="10.624761655936599"><ele>101.83333333333333</ele><time>2026-04-18T06:55:42Z</time></trkpt><trkpt lat="43.53879434526296" lon="10.624676914895534"><ele>102.0</ele><time>2026-04-18T06:55:43Z</time></trkpt><trkpt lat="43.53885461114676" lon="10.624599801386356"><ele>103.33333333333333</ele><time>2026-04-18T06:55:44Z</time></trkpt><trkpt lat="43.538909512612534" lon="10.624526124457478"><ele>104.66666666666666</ele><time>2026-04-18T06:55:45Z</time></trkpt><trkpt lat="43.53895787619384" lon="10.624446747834444"><ele>106.0</ele><time>2026-04-18T06:55:46Z</time></trkpt><trkpt lat="43.539008335250934" lon="10.624377932409406"><ele>107.33333333333333</ele><time>2026-04-18T06:55:47Z</time></trkpt><trkpt lat="43.539090477902015" lon="10.624273661533952"><ele>108.66666666666666</ele><time>2026-04-18T06:55:49Z</time></trkpt><trkpt lat="43.53914030831637" lon="10.624180873865843"><ele>110.0</ele><time>2026-04-18T06:55:51Z</time></trkpt><trkpt lat="43.53919248566361" lon="10.624082637960672"><ele>109.99999999999999</ele><time>2026-04-18T06:55:54Z</time></trkpt><trkpt lat="43.53924654893907" lon="10.624023964638472"><ele>110.0</ele><time>2026-04-18T06:55:58Z</time></trkpt><trkpt lat="43.53928342931302" lon="10.623945761481881"><ele>110.0</ele><time>2026-04-18T06:58:12.999Z</time></trkpt><trkpt lat="43.53923456281753" lon="10.62387384475267"><ele>110.0</ele><time>2026-04-18T07:01:08.998Z</time></trkpt><trkpt lat="43.53919885591002" lon="10.623793881396413"><ele>110.0</ele><time>2026-04-18T07:01:16.998Z</time></trkpt><trkpt lat="43.539265198673625" lon="10.62377326191461"><ele>109.99999999999999</ele><time>2026-04-18T07:01:44Z</time></trkpt><trkpt lat="43.53932290807696" lon="10.62373705209291"><ele>110.0</ele><time>2026-04-18T07:01:46Z</time></trkpt><trkpt lat="43.539404631632884" lon="10.623722970495582"><ele>109.99999999999999</ele><time>2026-04-18T07:01:48Z</time></trkpt><trkpt lat="43.539489414583464" lon="10.623755995194077"><ele>110.0</ele><time>2026-04-18T07:01:50Z</time></trkpt><trkpt lat="43.539590584154745" lon="10.623859595517278"><ele>110.0</ele><time>2026-04-18T07:01:52Z</time></trkpt><trkpt lat="43.539641378487964" lon="10.623928830037475"><ele>110.0</ele><time>2026-04-18T07:01:53Z</time></trkpt><trkpt lat="43.53969058025958" lon="10.623997729281545"><ele>109.99999999999999</ele><time>2026-04-18T07:01:54Z</time></trkpt><trkpt lat="43.53974078785958" lon="10.624063527221441"><ele>110.0</ele><time>2026-04-18T07:01:55Z</time></trkpt><trkpt lat="43.539819242473264" lon="10.624175760904908"><ele>110.33333333333333</ele><time>2026-04-18T07:01:57Z</time></trkpt><trkpt lat="43.53989849336775" lon="10.624304758394718"><ele>110.66666666666666</ele><time>2026-04-18T07:01:59Z</time></trkpt><trkpt lat="43.539942875545044" lon="10.624379692609072"><ele>111.0</ele><time>2026-04-18T07:02:00Z</time></trkpt><trkpt lat="43.53999999821516" lon="10.624452028433442"><ele>111.33333333333334</ele><time>2026-04-18T07:02:01Z</time></trkpt><trkpt lat="43.5400505830008" lon="10.624509444470167"><ele>111.66666666666667</ele><time>2026-04-18T07:02:02Z</time></trkpt><trkpt lat="43.54009752165856" lon="10.624568453068495"><ele>112.0</ele><time>2026-04-18T07:02:03Z</time></trkpt><trkpt lat="43.54014953136774" lon="10.62462293543911"><ele>112.0</ele><time>2026-04-18T07:02:04Z</time></trkpt><trkpt lat="43.54024768345388" lon="10.624728295961976"><ele>111.99999999999999</ele><time>2026-04-18T07:02:06Z</time></trkpt><trkpt lat="43.540292023721655" lon="10.624844469139934"><ele>111.99999999999999</ele><time>2026-04-18T07:02:08Z</time></trkpt><trkpt lat="43.5403442010689" lon="10.62498897315061"><ele>112.0</ele><time>2026-04-18T07:02:10Z</time></trkpt><trkpt lat="43.540338752831836" lon="10.625090477998018"><ele>112.0</ele><time>2026-04-18T07:02:11Z</time></trkpt><trkpt lat="43.540337663184424" lon="10.625191647569299"><ele>110.8</ele><time>2026-04-18T07:02:12Z</time></trkpt><trkpt lat="43.54036968205454" lon="10.625340426350595"><ele>109.6</ele><time>2026-04-18T07:02:14Z</time></trkpt><trkpt lat="43.540426678996106" lon="10.625442098836066"><ele>108.39999999999999</ele><time>2026-04-18T07:02:16Z</time></trkpt><trkpt lat="43.5404768865961" lon="10.625544609511854"><ele>107.19999999999999</ele><time>2026-04-18T07:02:18Z</time></trkpt><trkpt lat="43.540506516623815" lon="10.62564510853088"><ele>106.0</ele><time>2026-04-18T07:02:21Z</time></trkpt><trkpt lat="43.54047127072098" lon="10.625754408548238"><ele>106.0</ele><time>2026-04-18T07:02:24Z</time></trkpt><trkpt lat="43.54041276503684" lon="10.625819452116849"><ele>106.0</ele><time>2026-04-18T07:02:26Z</time></trkpt><trkpt lat="43.54029541839244" lon="10.625891452665092"><ele>106.0</ele><time>2026-04-18T07:02:28Z</time></trkpt><trkpt lat="43.54024177421214" lon="10.625937385494472"><ele>106.0</ele><time>2026-04-18T07:02:29Z</time></trkpt><trkpt lat="43.54014144283118" lon="10.626007961119177"><ele>106.0</ele><time>2026-04-18T07:02:31Z</time></trkpt><trkpt lat="43.54006223384621" lon="10.626074932525517"><ele>106.00000000000001</ele><time>2026-04-18T07:02:33Z</time></trkpt><trkpt lat="43.540006494190116" lon="10.626140981922509"><ele>106.0</ele><time>2026-04-18T07:02:35Z</time></trkpt><trkpt lat="43.540018438402136" lon="10.626238547275426"><ele>106.0</ele><time>2026-04-18T07:02:37Z</time></trkpt><trkpt lat="43.540051337372084" lon="10.626343237246038"><ele>106.0</ele><time>2026-04-18T07:02:39Z</time></trkpt><trkpt lat="43.54011671621682" lon="10.626499392102124"><ele>106.00000000000001</ele><time>2026-04-18T07:02:41Z</time></trkpt><trkpt lat="43.54016046975138" lon="10.626592347408296"><ele>106.0</ele><time>2026-04-18T07:02:42Z</time></trkpt><trkpt lat="43.540196511935015" lon="10.626687565828325"><ele>103.8</ele><time>2026-04-18T07:02:43Z</time></trkpt><trkpt lat="43.54024248667391" lon="10.626797620216967"><ele>101.6</ele><time>2026-04-18T07:02:44Z</time></trkpt><trkpt lat="43.54030241728159" lon="10.626922259117128"><ele>99.4</ele><time>2026-04-18T07:02:45Z</time></trkpt><trkpt lat="43.54037152607324" lon="10.627052430073382"><ele>97.2</ele><time>2026-04-18T07:02:46Z</time></trkpt><trkpt lat="43.540427098091264" lon="10.627177823344828"><ele>95.0</ele><time>2026-04-18T07:02:47Z</time></trkpt><trkpt lat="43.54049955964418" lon="10.627316292385224"><ele>93.2</ele><time>2026-04-18T07:02:48Z</time></trkpt><trkpt lat="43.5405675368789" lon="10.62744118274248"><ele>91.4</ele><time>2026-04-18T07:02:49Z</time></trkpt><trkpt lat="43.54063082024785" lon="10.627571772793893"><ele>89.6</ele><time>2026-04-18T07:02:50Z</time></trkpt><trkpt lat="43.54068769146087" lon="10.627690125266675"><ele>87.8</ele><time>2026-04-18T07:02:51Z</time></trkpt><trkpt lat="43.54074510749759" lon="10.627805544073347"><ele>86.0</ele><time>2026-04-18T07:02:52Z</time></trkpt><trkpt lat="43.540799296501596" lon="10.627919370318416"><ele>84.66666666666667</ele><time>2026-04-18T07:02:53Z</time></trkpt><trkpt lat="43.54085977193298" lon="10.628021378080014"><ele>83.33333333333334</ele><time>2026-04-18T07:02:54Z</time></trkpt><trkpt lat="43.54091337420376" lon="10.628119027251962"><ele>82.0</ele><time>2026-04-18T07:02:55Z</time></trkpt><trkpt lat="43.54096303698005" lon="10.628218939537767"><ele>80.66666666666667</ele><time>2026-04-18T07:02:56Z</time></trkpt><trkpt lat="43.540990948717614" lon="10.628327401364807"><ele>79.33333333333333</ele><time>2026-04-18T07:02:57Z</time></trkpt><trkpt lat="43.5410289606485" lon="10.62842915766931"><ele>78.0</ele><time>2026-04-18T07:02:58Z</time></trkpt><trkpt lat="43.54107556403013" lon="10.628526136289004"><ele>78.0</ele><time>2026-04-18T07:02:59Z</time></trkpt><trkpt lat="43.541131974238475" lon="10.628624958927396"><ele>78.0</ele><time>2026-04-18T07:03:00Z</time></trkpt><trkpt lat="43.54116742968889" lon="10.628726547593836"><ele>78.0</ele><time>2026-04-18T07:03:01Z</time></trkpt><trkpt lat="43.541223043616434" lon="10.628839032734398"><ele>78.0</ele><time>2026-04-18T07:03:02Z</time></trkpt><trkpt lat="43.54128167502912" lon="10.628957804302338"><ele>78.0</ele><time>2026-04-18T07:03:03Z</time></trkpt><trkpt lat="43.54134185709389" lon="10.629068445424203"><ele>75.4</ele><time>2026-04-18T07:03:04Z</time></trkpt><trkpt lat="43.54140057232561" lon="10.629194844524031"><ele>72.8</ele><time>2026-04-18T07:03:05Z</time></trkpt><trkpt lat="43.541449648368676" lon="10.629311688254242"><ele>70.2</ele><time>2026-04-18T07:03:06Z</time></trkpt><trkpt lat="43.54150128089221" lon="10.62941956334806"><ele>67.6</ele><time>2026-04-18T07:03:07Z</time></trkpt><trkpt lat="43.541556182357986" lon="10.629507070417171"><ele>65.0</ele><time>2026-04-18T07:03:08Z</time></trkpt><trkpt lat="43.54160098363044" lon="10.629601534465914"><ele>63.6</ele><time>2026-04-18T07:03:09Z</time></trkpt><trkpt lat="43.541639666113575" lon="10.629680408174758"><ele>62.2</ele><time>2026-04-18T07:03:10Z</time></trkpt><trkpt lat="43.54168622758569" lon="10.629788283268576"><ele>60.8</ele><time>2026-04-18T07:03:12Z</time></trkpt><trkpt lat="43.54171967137935" lon="10.629877299080258"><ele>59.4</ele><time>2026-04-18T07:03:15Z</time></trkpt><trkpt lat="43.54168434165748" lon="10.630005374560719"><ele>58.0</ele><time>2026-04-18T07:03:18Z</time></trkpt><trkpt lat="43.54160513267251" lon="10.630131857479578"><ele>58.0</ele><time>2026-04-18T07:03:20Z</time></trkpt><trkpt lat="43.541512177366336" lon="10.630272589633828"><ele>58.0</ele><time>2026-04-18T07:03:22Z</time></trkpt><trkpt lat="43.54147051930757" lon="10.630353558818465"><ele>58.0</ele><time>2026-04-18T07:03:23Z</time></trkpt><trkpt lat="43.54143259119572" lon="10.630434360365038"><ele>58.0</ele><time>2026-04-18T07:03:24Z</time></trkpt><trkpt lat="43.54138234168621" lon="10.630528070042496"><ele>58.0</ele><time>2026-04-18T07:03:25Z</time></trkpt><trkpt lat="43.5413268115777" lon="10.630626305947667"><ele>57.0</ele><time>2026-04-18T07:03:26Z</time></trkpt><trkpt lat="43.54127626870157" lon="10.630718674520617"><ele>56.0</ele><time>2026-04-18T07:03:27Z</time></trkpt><trkpt lat="43.54122974913897" lon="10.63081364148355"><ele>55.0</ele><time>2026-04-18T07:03:28Z</time></trkpt><trkpt lat="43.541174554306586" lon="10.630923612053161"><ele>54.0</ele><time>2026-04-18T07:03:29Z</time></trkpt><trkpt lat="43.54111441415133" lon="10.631034756089216"><ele>53.0</ele><time>2026-04-18T07:03:30Z</time></trkpt><trkpt lat="43.54106567338439" lon="10.63114774414397"><ele>53.0</ele><time>2026-04-18T07:03:31Z</time></trkpt><trkpt lat="43.54102476969691" lon="10.63126106747485"><ele>53.0</ele><time>2026-04-18T07:03:32Z</time></trkpt><trkpt lat="43.54097661566319" lon="10.631389981145627"><ele>53.0</ele><time>2026-04-18T07:03:33Z</time></trkpt><trkpt lat="43.540928503538986" lon="10.631518894816406"><ele>53.0</ele><time>2026-04-18T07:03:34Z</time></trkpt><trkpt lat="43.540865681174715" lon="10.631646215925581"><ele>53.0</ele><time>2026-04-18T07:03:35Z</time></trkpt><trkpt lat="43.54079007640811" lon="10.631780158738263"><ele>53.0</ele><time>2026-04-18T07:03:36Z</time></trkpt><trkpt lat="43.54071849495502" lon="10.631921561444766"><ele>53.0</ele><time>2026-04-18T07:03:37Z</time></trkpt><trkpt lat="43.54065743279042" lon="10.632062796513207"><ele>53.0</ele><time>2026-04-18T07:03:38Z</time></trkpt><trkpt lat="43.54059310168358" lon="10.632207300523884"><ele>53.0</ele><time>2026-04-18T07:03:39Z</time></trkpt><trkpt lat="43.540522693696936" lon="10.632357671866782"><ele>53.333333333333336</ele><time>2026-04-18T07:03:40Z</time></trkpt><trkpt lat="43.54043443225654" lon="10.632540397355921"><ele>53.66666666666667</ele><time>2026-04-18T07:03:41Z</time></trkpt><trkpt lat="43.540324210229834" lon="10.6327279843489"><ele>54.0</ele><time>2026-04-18T07:03:42Z</time></trkpt><trkpt lat="43.540241438936015" lon="10.632906099791295"><ele>55.2</ele><time>2026-04-18T07:03:43Z</time></trkpt><trkpt lat="43.54015925437542" lon="10.63306745142735"><ele>56.400000000000006</ele><time>2026-04-18T07:03:44Z</time></trkpt><trkpt lat="43.540087840560396" lon="10.633183708424339"><ele>57.6</ele><time>2026-04-18T07:03:45Z</time></trkpt><trkpt lat="43.540044045116325" lon="10.63330398873485"><ele>58.8</ele><time>2026-04-18T07:03:46Z</time></trkpt><trkpt lat="43.54000867348494" lon="10.633416306237349"><ele>60.0</ele><time>2026-04-18T07:03:47Z</time></trkpt><trkpt lat="43.539972421753724" lon="10.633535832176575"><ele>59.0</ele><time>2026-04-18T07:03:48Z</time></trkpt><trkpt lat="43.53991672400715" lon="10.633656112487087"><ele>58.0</ele><time>2026-04-18T07:03:49Z</time></trkpt><trkpt lat="43.539852518628855" lon="10.633783014501104"><ele>57.0</ele><time>2026-04-18T07:03:50Z</time></trkpt><trkpt lat="43.53977636903854" lon="10.6339196395228"><ele>56.0</ele><time>2026-04-18T07:03:51Z</time></trkpt><trkpt lat="43.53969477121117" lon="10.634060790772208"><ele>56.0</ele><time>2026-04-18T07:03:52Z</time></trkpt><trkpt lat="43.53959712203922" lon="10.634216107437977"><ele>56.0</ele><time>2026-04-18T07:03:53Z</time></trkpt><trkpt lat="43.539501945528706" lon="10.63437703997887"><ele>56.0</ele><time>2026-04-18T07:03:54Z</time></trkpt><trkpt lat="43.53940932549866" lon="10.634533781568178"><ele>56.0</ele><time>2026-04-18T07:03:55Z</time></trkpt><trkpt lat="43.53933183480384" lon="10.634665042171845"><ele>56.00000000000001</ele><time>2026-04-18T07:03:56Z</time></trkpt><trkpt lat="43.539271988015194" lon="10.634781802083024"><ele>56.0</ele><time>2026-04-18T07:03:57Z</time></trkpt><trkpt lat="43.53922379207196" lon="10.63486796804763"><ele>56.0</ele><time>2026-04-18T07:03:58Z</time></trkpt><trkpt lat="43.53917664386662" lon="10.634942566985856"><ele>56.0</ele><time>2026-04-18T07:03:59Z</time></trkpt><trkpt lat="43.53912408933373" lon="10.635009035478006"><ele>56.00000000000001</ele><time>2026-04-18T07:04:00Z</time></trkpt><trkpt lat="43.53906763721587" lon="10.63507567160822"><ele>56.0</ele><time>2026-04-18T07:04:01Z</time></trkpt><trkpt lat="43.5390143283117" lon="10.635154042402874"><ele>56.0</ele><time>2026-04-18T07:04:02Z</time></trkpt><trkpt lat="43.53894400414409" lon="10.635267365733753"><ele>56.0</ele><time>2026-04-18T07:04:03Z</time></trkpt><trkpt lat="43.53885997556479" lon="10.63540549949802"><ele>56.0</ele><time>2026-04-18T07:04:04Z</time></trkpt><trkpt lat="43.53877883874209" lon="10.635539777586828"><ele>56.0</ele><time>2026-04-18T07:04:05Z</time></trkpt><trkpt lat="43.53871052623124" lon="10.635650502527724"><ele>56.50000000000001</ele><time>2026-04-18T07:04:05.999Z</time></trkpt><trkpt lat="43.53864925451906" lon="10.635749744261275"><ele>57.0</ele><time>2026-04-18T07:04:06.999Z</time></trkpt><trkpt lat="43.53861551735879" lon="10.635823924104344"><ele>57.5</ele><time>2026-04-18T07:04:07.999Z</time></trkpt><trkpt lat="43.53857486512841" lon="10.635915203029882"><ele>58.0</ele><time>2026-04-18T07:04:08.999Z</time></trkpt><trkpt lat="43.53854686957182" lon="10.636037830273281"><ele>58.50000000000001</ele><time>2026-04-18T07:04:09.999Z</time></trkpt><trkpt lat="43.53851568889202" lon="10.636173952380787"><ele>59.0</ele><time>2026-04-18T07:04:10.999Z</time></trkpt><trkpt lat="43.53850202638985" lon="10.636324658999811"><ele>59.0</ele><time>2026-04-18T07:04:11.999Z</time></trkpt><trkpt lat="43.53848358620287" lon="10.63646723517276"><ele>59.00000000000001</ele><time>2026-04-18T07:04:12.999Z</time></trkpt><trkpt lat="43.53845852431239" lon="10.636584497998129"><ele>59.00000000000001</ele><time>2026-04-18T07:04:13.999Z</time></trkpt><trkpt lat="43.53842834946097" lon="10.63668323681749"><ele>59.0</ele><time>2026-04-18T07:04:14.999Z</time></trkpt><trkpt lat="43.5383768845755" lon="10.636833105246199"><ele>59.0</ele><time>2026-04-18T07:04:16.999Z</time></trkpt><trkpt lat="43.53834197394879" lon="10.636950032795442"><ele>58.2</ele><time>2026-04-18T07:04:18.999Z</time></trkpt><trkpt lat="43.538380363065315" lon="10.637062517936004"><ele>57.400000000000006</ele><time>2026-04-18T07:04:20.999Z</time></trkpt><trkpt lat="43.538460200693024" lon="10.637179277847183"><ele>56.6</ele><time>2026-04-18T07:04:22.999Z</time></trkpt><trkpt lat="43.53854896504761" lon="10.637297211224807"><ele>55.8</ele><time>2026-04-18T07:04:24.999Z</time></trkpt><trkpt lat="43.53859913073809" lon="10.637354711080564"><ele>55.0</ele><time>2026-04-18T07:04:25.999Z</time></trkpt><trkpt lat="43.53869833056213" lon="10.63746300526954"><ele>54.2</ele><time>2026-04-18T07:04:27.999Z</time></trkpt><trkpt lat="43.538761697750104" lon="10.637560151527298"><ele>53.4</ele><time>2026-04-18T07:04:29.999Z</time></trkpt><trkpt lat="43.5388681898299" lon="10.637674313048494"><ele>52.599999999999994</ele><time>2026-04-18T07:04:31.999Z</time></trkpt><trkpt lat="43.53892803661855" lon="10.637741200635803"><ele>51.8</ele><time>2026-04-18T07:04:32.999Z</time></trkpt><trkpt lat="43.53899613958182" lon="10.637820828715933"><ele>51.0</ele><time>2026-04-18T07:04:33.999Z</time></trkpt><trkpt lat="43.53906885259183" lon="10.637911185632122"><ele>51.0</ele><time>2026-04-18T07:04:34.999Z</time></trkpt><trkpt lat="43.539150366600175" lon="10.63801805489756"><ele>51.0</ele><time>2026-04-18T07:04:35.999Z</time></trkpt><trkpt lat="43.539236364926715" lon="10.6381109263847"><ele>51.0</ele><time>2026-04-18T07:04:36.999Z</time></trkpt><trkpt lat="43.53932806294741" lon="10.638203881690872"><ele>51.0</ele><time>2026-04-18T07:04:37.999Z</time></trkpt><trkpt lat="43.539402703795155" lon="10.638295076797379"><ele>51.0</ele><time>2026-04-18T07:04:38.999Z</time></trkpt><trkpt lat="43.53948824111702" lon="10.638370597744954"><ele>51.0</ele><time>2026-04-18T07:04:39.999Z</time></trkpt><trkpt lat="43.53956749201151" lon="10.638437569151295"><ele>51.0</ele><time>2026-04-18T07:04:40.999Z</time></trkpt><trkpt lat="43.539638025726696" lon="10.638497835035098"><ele>51.0</ele><time>2026-04-18T07:04:41.999Z</time></trkpt><trkpt lat="43.53969871070566" lon="10.638569416488183"><ele>51.0</ele><time>2026-04-18T07:04:42.999Z</time></trkpt><trkpt lat="43.539764005731364" lon="10.63863865100838"><ele>51.0</ele><time>2026-04-18T07:04:43.999Z</time></trkpt><trkpt lat="43.53982464880081" lon="10.638735964904203"><ele>51.0</ele><time>2026-04-18T07:04:44.999Z</time></trkpt><trkpt lat="43.539894721511324" lon="10.638844510550275"><ele>51.5</ele><time>2026-04-18T07:04:45.999Z</time></trkpt><trkpt lat="43.53996768597843" lon="10.638965209955945"><ele>52.0</ele><time>2026-04-18T07:04:46.999Z</time></trkpt><trkpt lat="43.5400574561614" lon="10.63908515499033"><ele>52.5</ele><time>2026-04-18T07:04:47.999Z</time></trkpt><trkpt lat="43.54015363850029" lon="10.639213817204013"><ele>53.0</ele><time>2026-04-18T07:04:48.999Z</time></trkpt><trkpt lat="43.54024793491097" lon="10.639332169676795"><ele>53.0</ele><time>2026-04-18T07:04:49.999Z</time></trkpt><trkpt lat="43.54033200539978" lon="10.639461837718859"><ele>53.0</ele><time>2026-04-18T07:04:50.999Z</time></trkpt><trkpt lat="43.54042504452499" lon="10.639586895714178"><ele>53.0</ele><time>2026-04-18T07:04:51.999Z</time></trkpt><trkpt lat="43.540517245459874" lon="10.639704326177611"><ele>53.0</ele><time>2026-04-18T07:04:52.999Z</time></trkpt><trkpt lat="43.540594526607116" lon="10.639801304797306"><ele>53.50000000000001</ele><time>2026-04-18T07:04:53.999Z</time></trkpt><trkpt lat="43.54065252937706" lon="10.639887638399973"><ele>54.0</ele><time>2026-04-18T07:04:54.999Z</time></trkpt><trkpt lat="43.54071568701746" lon="10.639966260651722"><ele>54.5</ele><time>2026-04-18T07:04:55.999Z</time></trkpt><trkpt lat="43.54075537532898" lon="10.640034154067411"><ele>55.0</ele><time>2026-04-18T07:04:56.999Z</time></trkpt><trkpt lat="43.54080084715368" lon="10.6401538476447"><ele>55.50000000000001</ele><time>2026-04-18T07:04:58.999Z</time></trkpt><trkpt lat="43.540777461643835" lon="10.640299357483759"><ele>56.0</ele><time>2026-04-18T07:05:00.999Z</time></trkpt><trkpt lat="43.540739910717626" lon="10.640378231192603"><ele>56.25</ele><time>2026-04-18T07:05:01.999Z</time></trkpt><trkpt lat="43.540675160515626" lon="10.64048903995253"><ele>56.5</ele><time>2026-04-18T07:05:02.999Z</time></trkpt><trkpt lat="43.540611541870554" lon="10.640605380768553"><ele>56.75</ele><time>2026-04-18T07:05:03.999Z</time></trkpt><trkpt lat="43.54053769730361" lon="10.640744101266042"><ele>57.0</ele><time>2026-04-18T07:05:04.999Z</time></trkpt><trkpt lat="43.540453710633834" lon="10.640897573913113"><ele>56.66666666666667</ele><time>2026-04-18T07:05:05.999Z</time></trkpt><trkpt lat="43.54035983331831" lon="10.641057752082721"><ele>56.333333333333336</ele><time>2026-04-18T07:05:06.999Z</time></trkpt><trkpt lat="43.54026524354102" lon="10.64122136683263"><ele>56.0</ele><time>2026-04-18T07:05:07.999Z</time></trkpt><trkpt lat="43.5401636967841" lon="10.641390597457663"><ele>56.66666666666667</ele><time>2026-04-18T07:05:08.999Z</time></trkpt><trkpt lat="43.540054564404805" lon="10.641563851396219"><ele>57.33333333333333</ele><time>2026-04-18T07:05:09.999Z</time></trkpt><trkpt lat="43.53994534820648" lon="10.64174221829571"><ele>58.0</ele><time>2026-04-18T07:05:10.999Z</time></trkpt><trkpt lat="43.53981350086959" lon="10.641930811117069"><ele>58.0</ele><time>2026-04-18T07:05:11.999Z</time></trkpt><trkpt lat="43.53967058942052" lon="10.642124600718395"><ele>58.0</ele><time>2026-04-18T07:05:12.999Z</time></trkpt><trkpt lat="43.53952415757211" lon="10.642334735030905"><ele>58.0</ele><time>2026-04-18T07:05:13.999Z</time></trkpt><trkpt lat="43.539362722117026" lon="10.642554005617875"><ele>58.0</ele><time>2026-04-18T07:05:14.999Z</time></trkpt><trkpt lat="43.539197472896" lon="10.642778808260935"><ele>58.0</ele><time>2026-04-18T07:05:15.999Z</time></trkpt><trkpt lat="43.53903507352205" lon="10.64301115461685"><ele>65.0</ele><time>2026-04-18T07:05:16.999Z</time></trkpt><trkpt lat="43.5388837801698" lon="10.643253391618508"><ele>72.0</ele><time>2026-04-18T07:05:17.999Z</time></trkpt><trkpt lat="43.53875264529468" lon="10.643493952239531"><ele>69.66666666666667</ele><time>2026-04-18T07:05:18.999Z</time></trkpt><trkpt lat="43.53862239051939" lon="10.643731160099286"><ele>67.33333333333334</ele><time>2026-04-18T07:05:19.999Z</time></trkpt><trkpt lat="43.538502068299366" lon="10.643957722942012"><ele>65.0</ele><time>2026-04-18T07:05:20.999Z</time></trkpt><trkpt lat="43.538398761342776" lon="10.644177244986075"><ele>65.0</ele><time>2026-04-18T07:05:21.999Z</time></trkpt><trkpt lat="43.53830911688836" lon="10.64438025468089"><ele>65.0</ele><time>2026-04-18T07:05:22.999Z</time></trkpt><trkpt lat="43.538217167410565" lon="10.644575469205757"><ele>65.0</ele><time>2026-04-18T07:05:23.999Z</time></trkpt><trkpt lat="43.53813477330239" lon="10.644749896610756"><ele>66.75</ele><time>2026-04-18T07:05:24.999Z</time></trkpt><trkpt lat="43.53805229537518" lon="10.644922228539963"><ele>68.5</ele><time>2026-04-18T07:05:25.999Z</time></trkpt><trkpt lat="43.53798096537919" lon="10.645086430023094"><ele>70.25</ele><time>2026-04-18T07:05:26.999Z</time></trkpt><trkpt lat="43.53794404309572" lon="10.645251050601383"><ele>72.0</ele><time>2026-04-18T07:05:27.999Z</time></trkpt><trkpt lat="43.537911102216256" lon="10.645416928465147"><ele>69.6</ele><time>2026-04-18T07:05:28.999Z</time></trkpt><trkpt lat="43.537878245155824" lon="10.645575178797026"><ele>67.2</ele><time>2026-04-18T07:05:29.999Z</time></trkpt><trkpt lat="43.53783893402995" lon="10.645719850445767"><ele>64.8</ele><time>2026-04-18T07:05:30.999Z</time></trkpt><trkpt lat="43.53778864261092" lon="10.645855469639082"><ele>62.4</ele><time>2026-04-18T07:05:31.999Z</time></trkpt><trkpt lat="43.537733238230956" lon="10.645977174873133"><ele>60.0</ele><time>2026-04-18T07:05:32.999Z</time></trkpt><trkpt lat="43.53764858100892" lon="10.646096449355264"><ele>61.75</ele><time>2026-04-18T07:05:33.999Z</time></trkpt><trkpt lat="43.537546279880715" lon="10.64620910213389"><ele>63.5</ele><time>2026-04-18T07:05:34.999Z</time></trkpt><trkpt lat="43.53742788549842" lon="10.646313708285472"><ele>65.25</ele><time>2026-04-18T07:05:35.999Z</time></trkpt><trkpt lat="43.5372835491258" lon="10.646401885906837"><ele>67.0</ele><time>2026-04-18T07:05:36.999Z</time></trkpt><trkpt lat="43.5371410986814" lon="10.646470114598653"><ele>66.66666666666666</ele><time>2026-04-18T07:05:37.999Z</time></trkpt><trkpt lat="43.53697253860862" lon="10.646485788757584"><ele>66.33333333333333</ele><time>2026-04-18T07:05:38.999Z</time></trkpt><trkpt lat="43.536796476732505" lon="10.646457374105832"><ele>66.0</ele><time>2026-04-18T07:05:39.999Z</time></trkpt><trkpt lat="43.53663474791081" lon="10.646389061594984"><ele>66.0</ele><time>2026-04-18T07:05:40.999Z</time></trkpt><trkpt lat="43.536467151756895" lon="10.646318402151248"><ele>66.0</ele><time>2026-04-18T07:05:41.999Z</time></trkpt><trkpt lat="43.53632080372752" lon="10.646247575069447"><ele>66.0</ele><time>2026-04-18T07:05:42.999Z</time></trkpt><trkpt lat="43.53619666774155" lon="10.646210359419365"><ele>66.33333333333333</ele><time>2026-04-18T07:05:43.999Z</time></trkpt><trkpt lat="43.536056899506164" lon="10.646203821534892"><ele>66.66666666666666</ele><time>2026-04-18T07:05:44.999Z</time></trkpt><trkpt lat="43.53590761781068" lon="10.646220669160266"><ele>67.0</ele><time>2026-04-18T07:05:45.999Z</time></trkpt><trkpt lat="43.53572539523573" lon="10.646267188722868"><ele>67.0</ele><time>2026-04-18T07:05:46.999Z</time></trkpt><trkpt lat="43.535522595088494" lon="10.646331729377291"><ele>67.0</ele><time>2026-04-18T07:05:47.999Z</time></trkpt><trkpt lat="43.53530210912557" lon="10.64640590922036"><ele>67.0</ele><time>2026-04-18T07:05:48.999Z</time></trkpt><trkpt lat="43.53507366035463" lon="10.646494003022692"><ele>66.0</ele><time>2026-04-18T07:05:49.999Z</time></trkpt><trkpt lat="43.53482983079137" lon="10.646578073511503"><ele>65.0</ele><time>2026-04-18T07:05:50.999Z</time></trkpt><trkpt lat="43.53458030153395" lon="10.646672034646055"><ele>63.5</ele><time>2026-04-18T07:05:51.999Z</time></trkpt><trkpt lat="43.53432867680074" lon="10.646760547543547"><ele>62.0</ele><time>2026-04-18T07:05:52.999Z</time></trkpt><trkpt lat="43.53408635598005" lon="10.646841516728184"><ele>62.0</ele><time>2026-04-18T07:05:53.999Z</time></trkpt><trkpt lat="43.53386121806086" lon="10.646921060989282"><ele>62.0</ele><time>2026-04-18T07:05:54.999Z</time></trkpt><trkpt lat="43.53362023834468" lon="10.646987110386274"><ele>63.5</ele><time>2026-04-18T07:05:55.999Z</time></trkpt><trkpt lat="43.533376366871906" lon="10.647037820900461"><ele>65.0</ele><time>2026-04-18T07:05:56.999Z</time></trkpt><trkpt lat="43.5331289749998" lon="10.647073276350877"><ele>65.0</ele><time>2026-04-18T07:05:57.999Z</time></trkpt><trkpt lat="43.53290899195106" lon="10.647094650203965"><ele>65.0</ele><time>2026-04-18T07:05:58.999Z</time></trkpt><trkpt lat="43.532702964771104" lon="10.647117532799623"><ele>65.0</ele><time>2026-04-18T07:05:59.999Z</time></trkpt><trkpt lat="43.532501715275956" lon="10.64714033157625"><ele>65.33333333333334</ele><time>2026-04-18T07:06:00.999Z</time></trkpt><trkpt lat="43.532313751097334" lon="10.647169752056381"><ele>65.66666666666667</ele><time>2026-04-18T07:06:01.999Z</time></trkpt><trkpt lat="43.53212863676579" lon="10.647216271618984"><ele>66.0</ele><time>2026-04-18T07:06:02.999Z</time></trkpt><trkpt lat="43.53195408363224" lon="10.647289780909798"><ele>64.66666666666667</ele><time>2026-04-18T07:06:03.999Z</time></trkpt><trkpt lat="43.53177693210871" lon="10.647392291585586"><ele>63.333333333333336</ele><time>2026-04-18T07:06:04.999Z</time></trkpt><trkpt lat="43.531615119467986" lon="10.647522211084745"><ele>62.0</ele><time>2026-04-18T07:06:05.999Z</time></trkpt><trkpt lat="43.53151286024929" lon="10.647708373154185"><ele>62.333333333333336</ele><time>2026-04-18T07:06:06.999Z</time></trkpt><trkpt lat="43.531417432281685" lon="10.647871736446998"><ele>62.66666666666667</ele><time>2026-04-18T07:06:07.999Z</time></trkpt><trkpt lat="43.531310688744796" lon="10.648053539926789"><ele>63.0</ele><time>2026-04-18T07:06:08.999Z</time></trkpt><trkpt lat="43.531192252452975" lon="10.648222854370855"><ele>63.0</ele><time>2026-04-18T07:06:09.999Z</time></trkpt><trkpt lat="43.53106166240156" lon="10.648377249027275"><ele>63.0</ele><time>2026-04-18T07:06:10.999Z</time></trkpt><trkpt lat="43.53092533074648" lon="10.648515634248637"><ele>63.0</ele><time>2026-04-18T07:06:11.999Z</time></trkpt><trkpt lat="43.53077994663597" lon="10.64864136279621"><ele>63.5</ele><time>2026-04-18T07:06:12.999Z</time></trkpt><trkpt lat="43.530657151754504" lon="10.648747645328426"><ele>64.0</ele><time>2026-04-18T07:06:13.999Z</time></trkpt><trkpt lat="43.53053125556887" lon="10.648848311985516"><ele>64.5</ele><time>2026-04-18T07:06:14.999Z</time></trkpt><trkpt lat="43.530406239483064" lon="10.648898435766482"><ele>65.0</ele><time>2026-04-18T07:06:15.999Z</time></trkpt><trkpt lat="43.53028893474818" lon="10.648917462686681"><ele>66.5</ele><time>2026-04-18T07:06:16.999Z</time></trkpt><trkpt lat="43.53016257755787" lon="10.64889592119553"><ele>68.0</ele><time>2026-04-18T07:06:17.999Z</time></trkpt><trkpt lat="43.530023982788926" lon="10.648845965052628"><ele>69.5</ele><time>2026-04-18T07:06:18.999Z</time></trkpt><trkpt lat="43.52989234499962" lon="10.648759966726088"><ele>71.0</ele><time>2026-04-18T07:06:19.999Z</time></trkpt><trkpt lat="43.529762760776585" lon="10.648659216249966"><ele>70.33333333333334</ele><time>2026-04-18T07:06:20.999Z</time></trkpt><trkpt lat="43.529626177664404" lon="10.648549832413577"><ele>69.66666666666667</ele><time>2026-04-18T07:06:21.999Z</time></trkpt><trkpt lat="43.52948393676758" lon="10.648432988683366"><ele>69.0</ele><time>2026-04-18T07:06:22.999Z</time></trkpt><trkpt lat="43.529357663396304" lon="10.648310109982871"><ele>69.0</ele><time>2026-04-18T07:06:23.999Z</time></trkpt><trkpt lat="43.529237969819015" lon="10.648185890177867"><ele>69.0</ele><time>2026-04-18T07:06:24.999Z</time></trkpt><trkpt lat="43.52911789905608" lon="10.648060748363516"><ele>69.0</ele><time>2026-04-18T07:06:25.999Z</time></trkpt><trkpt lat="43.52899791211218" lon="10.647939965138814"><ele>69.0</ele><time>2026-04-18T07:06:26.999Z</time></trkpt><trkpt lat="43.52888257712454" lon="10.647817756990573"><ele>68.25</ele><time>2026-04-18T07:06:27.999Z</time></trkpt><trkpt lat="43.52875705812455" lon="10.64770275727906"><ele>67.5</ele><time>2026-04-18T07:06:28.999Z</time></trkpt><trkpt lat="43.52863128766746" lon="10.647598151127479"><ele>66.75</ele><time>2026-04-18T07:06:29.999Z</time></trkpt><trkpt lat="43.52849591993124" lon="10.64750687220194"><ele>66.0</ele><time>2026-04-18T07:06:30.999Z</time></trkpt><trkpt lat="43.5283502005446" lon="10.647432859996936"><ele>66.0</ele><time>2026-04-18T07:06:31.999Z</time></trkpt><trkpt lat="43.528210432309216" lon="10.647381143654368"><ele>66.0</ele><time>2026-04-18T07:06:32.999Z</time></trkpt><trkpt lat="43.52806861050755" lon="10.647341832528493"><ele>66.0</ele><time>2026-04-18T07:06:33.999Z</time></trkpt><trkpt lat="43.52793408096165" lon="10.647316016266725"><ele>66.0</ele><time>2026-04-18T07:06:34.999Z</time></trkpt><trkpt lat="43.52779950950623" lon="10.647300258288762"><ele>66.75</ele><time>2026-04-18T07:06:35.999Z</time></trkpt><trkpt lat="43.527666823979025" lon="10.647297911355874"><ele>67.5</ele><time>2026-04-18T07:06:36.999Z</time></trkpt><trkpt lat="43.52752353534431" lon="10.647298246632001"><ele>68.25</ele><time>2026-04-18T07:06:37.999Z</time></trkpt><trkpt lat="43.52739076599807" lon="10.647312747324488"><ele>69.0</ele><time>2026-04-18T07:06:38.999Z</time></trkpt><trkpt lat="43.52726935413063" lon="10.647336971024654"><ele>69.0</ele><time>2026-04-18T07:06:39.999Z</time></trkpt><trkpt lat="43.527147816534644" lon="10.647360440353534"><ele>69.0</ele><time>2026-04-18T07:06:40.999Z</time></trkpt><trkpt lat="43.52704346184016" lon="10.647384328777573"><ele>69.0</ele><time>2026-04-18T07:06:41.999Z</time></trkpt><trkpt lat="43.52693114433766" lon="10.647433027635"><ele>69.0</ele><time>2026-04-18T07:06:42.999Z</time></trkpt><trkpt lat="43.526817360002106" lon="10.647477703178904"><ele>68.0</ele><time>2026-04-18T07:06:43.999Z</time></trkpt><trkpt lat="43.52670994591296" lon="10.647529587159536"><ele>67.0</ele><time>2026-04-18T07:06:44.999Z</time></trkpt><trkpt lat="43.52659201253534" lon="10.647596893842003"><ele>66.0</ele><time>2026-04-18T07:06:45.999Z</time></trkpt><trkpt lat="43.526485520455545" lon="10.647657495001933"><ele>65.0</ele><time>2026-04-18T07:06:46.999Z</time></trkpt><trkpt lat="43.5263884161073" lon="10.647732177759192"><ele>64.6</ele><time>2026-04-18T07:06:47.999Z</time></trkpt><trkpt lat="43.52628896482617" lon="10.647806273783228"><ele>64.2</ele><time>2026-04-18T07:06:48.999Z</time></trkpt><trkpt lat="43.5261976020816" lon="10.647870982075712"><ele>63.8</ele><time>2026-04-18T07:06:49.999Z</time></trkpt><trkpt lat="43.52609106809229" lon="10.647938372577212"><ele>63.4</ele><time>2026-04-18T07:06:50.999Z</time></trkpt><trkpt lat="43.52601441558779" lon="10.648009451116106"><ele>63.0</ele><time>2026-04-18T07:06:51.999Z</time></trkpt><trkpt lat="43.52595649663687" lon="10.648078350360176"><ele>63.0</ele><time>2026-04-18T07:06:52.999Z</time></trkpt><trkpt lat="43.52592330430031" lon="10.648207347849988"><ele>63.0</ele><time>2026-04-18T07:06:54.999Z</time></trkpt><trkpt lat="43.525952724780446" lon="10.648322347561502"><ele>63.0</ele><time>2026-04-18T07:06:56.999Z</time></trkpt><trkpt lat="43.525988347868925" lon="10.648470455790543"><ele>63.0</ele><time>2026-04-18T07:06:58.999Z</time></trkpt><trkpt lat="43.52600578222752" lon="10.648560058335446"><ele>63.0</ele><time>2026-04-18T07:06:59.999Z</time></trkpt><trkpt lat="43.52601299066425" lon="10.648657791326427"><ele>63.0</ele><time>2026-04-18T07:07:00.999Z</time></trkpt><trkpt lat="43.52603616662652" lon="10.64874052071073"><ele>64.33333333333333</ele><time>2026-04-18T07:07:01.999Z</time></trkpt><trkpt lat="43.52605661847026" lon="10.648827189589523"><ele>65.66666666666667</ele><time>2026-04-18T07:07:02.999Z</time></trkpt><trkpt lat="43.52607815996141" lon="10.648912098268651"><ele>67.0</ele><time>2026-04-18T07:07:03.999Z</time></trkpt><trkpt lat="43.5260940017584" lon="10.649057943383836"><ele>68.33333333333334</ele><time>2026-04-18T07:07:05.999Z</time></trkpt><trkpt lat="43.526077782775765" lon="10.649189036349439"><ele>69.66666666666667</ele><time>2026-04-18T07:07:07.999Z</time></trkpt><trkpt lat="43.52599689741016" lon="10.649265982220554"><ele>71.0</ele><time>2026-04-18T07:07:09.999Z</time></trkpt><trkpt lat="43.52590222381384" lon="10.64924770967164"><ele>71.0</ele><time>2026-04-18T07:07:11.999Z</time></trkpt><trkpt lat="43.52582163181484" lon="10.649147965023898"><ele>71.0</ele><time>2026-04-18T07:07:13.999Z</time></trkpt><trkpt lat="43.52576174311668" lon="10.649083927283668"><ele>71.0</ele><time>2026-04-18T07:07:14.999Z</time></trkpt><trkpt lat="43.525687144178455" lon="10.649012932563805"><ele>71.0</ele><time>2026-04-18T07:07:15.999Z</time></trkpt><trkpt lat="43.525606929365104" lon="10.648942021662974"><ele>71.0</ele><time>2026-04-18T07:07:16.999Z</time></trkpt><trkpt lat="43.52554020941586" lon="10.64887396060922"><ele>71.0</ele><time>2026-04-18T07:07:17.999Z</time></trkpt><trkpt lat="43.52547105871469" lon="10.648796847100042"><ele>71.0</ele><time>2026-04-18T07:07:18.999Z</time></trkpt><trkpt lat="43.52541137956411" lon="10.648709423849963"><ele>71.0</ele><time>2026-04-18T07:07:19.999Z</time></trkpt><trkpt lat="43.5253592860359" lon="10.648628454665326"><ele>71.0</ele><time>2026-04-18T07:07:20.999Z</time></trkpt><trkpt lat="43.52530710868866" lon="10.648564333106064"><ele>71.0</ele><time>2026-04-18T07:07:21.999Z</time></trkpt><trkpt lat="43.52519810203791" lon="10.648466516296052"><ele>70.8</ele><time>2026-04-18T07:07:23.999Z</time></trkpt><trkpt lat="43.5251306696269" lon="10.648448998118424"><ele>70.6</ele><time>2026-04-18T07:07:24.999Z</time></trkpt><trkpt lat="43.52501671765328" lon="10.648462325344466"><ele>70.4</ele><time>2026-04-18T07:07:26.999Z</time></trkpt><trkpt lat="43.524934700730746" lon="10.648537930111074"><ele>70.2</ele><time>2026-04-18T07:07:28.999Z</time></trkpt><trkpt lat="43.524891701567476" lon="10.64860758372643"><ele>70.0</ele><time>2026-04-18T07:07:29.999Z</time></trkpt><trkpt lat="43.524867729324406" lon="10.648755859593534"><ele>70.0</ele><time>2026-04-18T07:07:31.999Z</time></trkpt><trkpt lat="43.524895263876324" lon="10.648907991136097"><ele>70.0</ele><time>2026-04-18T07:07:33.999Z</time></trkpt><trkpt lat="43.524942914995854" lon="10.649081161255621"><ele>70.0</ele><time>2026-04-18T07:07:35.999Z</time></trkpt><trkpt lat="43.5250061983648" lon="10.649191131825232"><ele>70.0</ele><time>2026-04-18T07:07:36.999Z</time></trkpt><trkpt lat="43.52505322084159" lon="10.649332199255609"><ele>70.25</ele><time>2026-04-18T07:07:37.999Z</time></trkpt><trkpt lat="43.52510845758349" lon="10.649490281949424"><ele>70.5</ele><time>2026-04-18T07:07:38.999Z</time></trkpt><trkpt lat="43.525171866680985" lon="10.649651214490317"><ele>70.75</ele><time>2026-04-18T07:07:39.999Z</time></trkpt><trkpt lat="43.525223163928395" lon="10.649790018806838"><ele>71.0</ele><time>2026-04-18T07:07:40.999Z</time></trkpt><trkpt lat="43.52526486389667" lon="10.64991910011568"><ele>71.0</ele><time>2026-04-18T07:07:41.999Z</time></trkpt><trkpt lat="43.52532894354642" lon="10.650023454810166"><ele>71.0</ele><time>2026-04-18T07:07:42.999Z</time></trkpt><trkpt lat="43.52538262963623" lon="10.650132168094302"><ele>71.0</ele><time>2026-04-18T07:07:43.999Z</time></trkpt><trkpt lat="43.52546690967262" lon="10.65019603819647"><ele>71.0</ele><time>2026-04-18T07:07:44.999Z</time></trkpt><trkpt lat="43.525546914938396" lon="10.650232415656234"><ele>71.0</ele><time>2026-04-18T07:07:45.999Z</time></trkpt><trkpt lat="43.52564448029131" lon="10.65025026910999"><ele>72.2</ele><time>2026-04-18T07:07:46.999Z</time></trkpt><trkpt lat="43.525736723135715" lon="10.650286143655563"><ele>73.39999999999999</ele><time>2026-04-18T07:07:47.999Z</time></trkpt><trkpt lat="43.52582238618613" lon="10.650354288528348"><ele>74.6</ele><time>2026-04-18T07:07:48.999Z</time></trkpt><trkpt lat="43.52590553466559" lon="10.650434335703636"><ele>75.8</ele><time>2026-04-18T07:07:49.999Z</time></trkpt><trkpt lat="43.525978834408825" lon="10.650507174442197"><ele>77.0</ele><time>2026-04-18T07:07:50.999Z</time></trkpt><trkpt lat="43.52603754964054" lon="10.650590155283595"><ele>77.8</ele><time>2026-04-18T07:07:51.999Z</time></trkpt><trkpt lat="43.526072124991124" lon="10.650687552998448"><ele>78.6</ele><time>2026-04-18T07:07:52.999Z</time></trkpt><trkpt lat="43.52609877944321" lon="10.650800289596106"><ele>79.39999999999999</ele><time>2026-04-18T07:07:53.999Z</time></trkpt><trkpt lat="43.52614399981082" lon="10.65091042780378"><ele>80.2</ele><time>2026-04-18T07:07:54.999Z</time></trkpt><trkpt lat="43.52619714107693" lon="10.651030037562037"><ele>81.0</ele><time>2026-04-18T07:07:55.999Z</time></trkpt><trkpt lat="43.526283684227174" lon="10.651137996474887"><ele>82.4</ele><time>2026-04-18T07:07:56.999Z</time></trkpt><trkpt lat="43.52636909582049" lon="10.651226174096251"><ele>83.8</ele><time>2026-04-18T07:07:57.999Z</time></trkpt><trkpt lat="43.52645178329528" lon="10.651323907087232"><ele>85.2</ele><time>2026-04-18T07:07:58.999Z</time></trkpt><trkpt lat="43.52649951823384" lon="10.651435386399413"><ele>86.60000000000001</ele><time>2026-04-18T07:07:59.999Z</time></trkpt><trkpt lat="43.52655307859511" lon="10.651565305898572"><ele>88.0</ele><time>2026-04-18T07:08:00.999Z</time></trkpt><trkpt lat="43.52661024317474" lon="10.651700757453824"><ele>88.0</ele><time>2026-04-18T07:08:01.999Z</time></trkpt><trkpt lat="43.526644357520645" lon="10.651858923966671"><ele>88.0</ele><time>2026-04-18T07:08:02.999Z</time></trkpt><trkpt lat="43.5266672401163" lon="10.652016419927264"><ele>88.0</ele><time>2026-04-18T07:08:03.999Z</time></trkpt><trkpt lat="43.526675622019475" lon="10.652154721329596"><ele>88.0</ele><time>2026-04-18T07:08:04.999Z</time></trkpt><trkpt lat="43.526696451048856" lon="10.652284473190692"><ele>88.0</ele><time>2026-04-18T07:08:05.999Z</time></trkpt><trkpt lat="43.526727715547686" lon="10.652418499822405"><ele>88.2</ele><time>2026-04-18T07:08:06.999Z</time></trkpt><trkpt lat="43.52677046325386" lon="10.652551939720896"><ele>88.4</ele><time>2026-04-18T07:08:07.999Z</time></trkpt><trkpt lat="43.52682502944351" lon="10.65267724917331"><ele>88.60000000000001</ele><time>2026-04-18T07:08:08.999Z</time></trkpt><trkpt lat="43.52688311603249" lon="10.652784537533906"><ele>88.80000000000001</ele><time>2026-04-18T07:08:09.999Z</time></trkpt><trkpt lat="43.526958301703935" lon="10.652881432334569"><ele>89.0</ele><time>2026-04-18T07:08:10.999Z</time></trkpt><trkpt lat="43.52704031862647" lon="10.652972208345917"><ele>90.4</ele><time>2026-04-18T07:08:11.999Z</time></trkpt><trkpt lat="43.52716634054065" lon="10.653064409280804"><ele>91.80000000000001</ele><time>2026-04-18T07:08:12.999Z</time></trkpt><trkpt lat="43.52725246459574" lon="10.653127525011685"><ele>93.19999999999999</ele><time>2026-04-18T07:08:13.999Z</time></trkpt><trkpt lat="43.527350658591395" lon="10.653172619650748"><ele>94.6</ele><time>2026-04-18T07:08:14.999Z</time></trkpt><trkpt lat="43.52744663138271" lon="10.653179492811349"><ele>96.0</ele><time>2026-04-18T07:08:15.999Z</time></trkpt><trkpt lat="43.52755010597736" lon="10.653188042352584"><ele>96.0</ele><time>2026-04-18T07:08:16.999Z</time></trkpt><trkpt lat="43.52766233966083" lon="10.653177313516524"><ele>96.0</ele><time>2026-04-18T07:08:17.999Z</time></trkpt><trkpt lat="43.52778425444246" lon="10.653175720954922"><ele>96.0</ele><time>2026-04-18T07:08:18.999Z</time></trkpt><trkpt lat="43.527873437892204" lon="10.653159627700832"><ele>96.0</ele><time>2026-04-18T07:08:19.999Z</time></trkpt><trkpt lat="43.52795101240606" lon="10.653152083987978"><ele>96.0</ele><time>2026-04-18T07:08:20.999Z</time></trkpt><trkpt lat="43.52804271042675" lon="10.653157196948912"><ele>97.19999999999999</ele><time>2026-04-18T07:08:21.999Z</time></trkpt><trkpt lat="43.52813147478134" lon="10.653169602165606"><ele>98.39999999999999</ele><time>2026-04-18T07:08:22.999Z</time></trkpt><trkpt lat="43.52821952667416" lon="10.653211427862432"><ele>99.6</ele><time>2026-04-18T07:08:23.999Z</time></trkpt><trkpt lat="43.52829064712257" lon="10.653264652947572"><ele>100.8</ele><time>2026-04-18T07:08:24.999Z</time></trkpt><trkpt lat="43.52837153248817" lon="10.653330702344563"><ele>102.0</ele><time>2026-04-18T07:08:25.999Z</time></trkpt><trkpt lat="43.52846390106112" lon="10.653413934643057"><ele>102.0</ele><time>2026-04-18T07:08:26.999Z</time></trkpt><trkpt lat="43.52857441645444" lon="10.653518876070764"><ele>102.0</ele><time>2026-04-18T07:08:27.999Z</time></trkpt><trkpt lat="43.52869105063707" lon="10.653635552162912"><ele>102.0</ele><time>2026-04-18T07:08:28.999Z</time></trkpt><trkpt lat="43.528812839690154" lon="10.653756922120836"><ele>102.0</ele><time>2026-04-18T07:08:29.999Z</time></trkpt><trkpt lat="43.52892327126444" lon="10.65387728625038"><ele>103.5</ele><time>2026-04-18T07:08:30.999Z</time></trkpt><trkpt lat="43.52902838033021" lon="10.654013659814982"><ele>105.0</ele><time>2026-04-18T07:08:31.999Z</time></trkpt><trkpt lat="43.529139314818686" lon="10.654160510758548"><ele>106.5</ele><time>2026-04-18T07:08:32.999Z</time></trkpt><trkpt lat="43.52921412330449" lon="10.65432965756455"><ele>108.0</ele><time>2026-04-18T07:08:33.999Z</time></trkpt><trkpt lat="43.5292870877716" lon="10.654477849612622"><ele>108.0</ele><time>2026-04-18T07:08:34.999Z</time></trkpt><trkpt lat="43.529355526010995" lon="10.654614893729477"><ele>108.00000000000001</ele><time>2026-04-18T07:08:35.999Z</time></trkpt><trkpt lat="43.52942480244071" lon="10.65473131836453"><ele>108.00000000000001</ele><time>2026-04-18T07:08:36.999Z</time></trkpt><trkpt lat="43.529487247619336" lon="10.654841875667362"><ele>108.0</ele><time>2026-04-18T07:08:37.999Z</time></trkpt><trkpt lat="43.52952886376858" lon="10.654959641406922"><ele>108.0</ele><time>2026-04-18T07:08:38.999Z</time></trkpt><trkpt lat="43.529563355300134" lon="10.655072461823611"><ele>108.0</ele><time>2026-04-18T07:08:39.999Z</time></trkpt><trkpt lat="43.529560924548214" lon="10.655199112380533"><ele>108.00000000000001</ele><time>2026-04-18T07:08:40.999Z</time></trkpt><trkpt lat="43.52956084072918" lon="10.655345292771845"><ele>108.00000000000001</ele><time>2026-04-18T07:08:41.999Z</time></trkpt><trkpt lat="43.529559709172254" lon="10.655498178685693"><ele>108.0</ele><time>2026-04-18T07:08:42.999Z</time></trkpt><trkpt lat="43.52957504805506" lon="10.65564268269637"><ele>108.0</ele><time>2026-04-18T07:08:43.999Z</time></trkpt><trkpt lat="43.5296134790811" lon="10.655780313546448"><ele>109.4</ele><time>2026-04-18T07:08:44.999Z</time></trkpt><trkpt lat="43.529669260646706" lon="10.655926996851951"><ele>110.80000000000001</ele><time>2026-04-18T07:08:45.999Z</time></trkpt><trkpt lat="43.52972709577859" lon="10.656060436750442"><ele>112.2</ele><time>2026-04-18T07:08:46.999Z</time></trkpt><trkpt lat="43.529781787696784" lon="10.656184237460286"><ele>113.6</ele><time>2026-04-18T07:08:47.999Z</time></trkpt><trkpt lat="43.5298309894684" lon="10.65629336983958"><ele>115.0</ele><time>2026-04-18T07:08:48.999Z</time></trkpt><trkpt lat="43.529858356382256" lon="10.65640677698949"><ele>116.2</ele><time>2026-04-18T07:08:49.999Z</time></trkpt><trkpt lat="43.52987679656923" lon="10.656527811671287"><ele>117.4</ele><time>2026-04-18T07:08:50.999Z</time></trkpt><trkpt lat="43.52989532057524" lon="10.65665991046527"><ele>118.6</ele><time>2026-04-18T07:08:51.999Z</time></trkpt><trkpt lat="43.52989502720863" lon="10.656789913783461"><ele>119.8</ele><time>2026-04-18T07:08:52.999Z</time></trkpt><trkpt lat="43.52991262920529" lon="10.656925784433872"><ele>121.0</ele><time>2026-04-18T07:08:53.999Z</time></trkpt><trkpt lat="43.52994024757624" lon="10.657038856307656"><ele>121.0</ele><time>2026-04-18T07:08:54.999Z</time></trkpt><trkpt lat="43.52999259256155" lon="10.65713239834705"><ele>121.0</ele><time>2026-04-18T07:08:55.999Z</time></trkpt><trkpt lat="43.5300667304951" lon="10.657206494371087"><ele>121.0</ele><time>2026-04-18T07:08:56.999Z</time></trkpt><trkpt lat="43.5301589733395" lon="10.657256785790116"><ele>121.0</ele><time>2026-04-18T07:08:57.999Z</time></trkpt><trkpt lat="43.5302593885395" lon="10.657306239018828"><ele>121.0</ele><time>2026-04-18T07:08:58.999Z</time></trkpt><trkpt lat="43.53037853729308" lon="10.657360637570411"><ele>123.8</ele><time>2026-04-18T07:08:59.999Z</time></trkpt><trkpt lat="43.53049098052413" lon="10.657414700845868"><ele>126.6</ele><time>2026-04-18T07:09:00.999Z</time></trkpt><trkpt lat="43.530595838132804" lon="10.657472116882593"><ele>129.4</ele><time>2026-04-18T07:09:01.999Z</time></trkpt><trkpt lat="43.53069139182896" lon="10.657516624788434"><ele>132.2</ele><time>2026-04-18T07:09:02.999Z</time></trkpt><trkpt lat="43.530783215578204" lon="10.65753648989895"><ele>135.0</ele><time>2026-04-18T07:09:03.998Z</time></trkpt><trkpt lat="43.53088312786401" lon="10.657543027783424"><ele>135.0</ele><time>2026-04-18T07:09:04.998Z</time></trkpt><trkpt lat="43.530987482558494" lon="10.657522492120654"><ele>135.0</ele><time>2026-04-18T07:09:05.998Z</time></trkpt><trkpt lat="43.53108068932176" lon="10.657479744414479"><ele>135.0</ele><time>2026-04-18T07:09:06.998Z</time></trkpt><trkpt lat="43.531179092864996" lon="10.6574250944058"><ele>135.0</ele><time>2026-04-18T07:09:07.998Z</time></trkpt><trkpt lat="43.53126898877651" lon="10.657367594550044"><ele>135.0</ele><time>2026-04-18T07:09:08.998Z</time></trkpt><trkpt lat="43.531338432844294" lon="10.657322583730013"><ele>136.83333333333334</ele><time>2026-04-18T07:09:09.998Z</time></trkpt><trkpt lat="43.53141797710539" lon="10.657296851287276"><ele>138.66666666666666</ele><time>2026-04-18T07:09:10.998Z</time></trkpt><trkpt lat="43.53151319552542" lon="10.65730825067559"><ele>140.5</ele><time>2026-04-18T07:09:11.998Z</time></trkpt><trkpt lat="43.53157849055113" lon="10.657346723611147"><ele>142.33333333333331</ele><time>2026-04-18T07:09:12.998Z</time></trkpt><trkpt lat="43.53164525240989" lon="10.657390644783765"><ele>144.16666666666666</ele><time>2026-04-18T07:09:13.998Z</time></trkpt><trkpt lat="43.53171193044962" lon="10.657451245943696"><ele>146.0</ele><time>2026-04-18T07:09:14.998Z</time></trkpt><trkpt lat="43.53180375419886" lon="10.657513355846197"><ele>146.0</ele><time>2026-04-18T07:09:15.998Z</time></trkpt><trkpt lat="43.53190815080286" lon="10.657591475183755"><ele>146.0</ele><time>2026-04-18T07:09:16.998Z</time></trkpt><trkpt lat="43.53201954629601" lon="10.657649477953703"><ele>146.0</ele><time>2026-04-18T07:09:17.998Z</time></trkpt><trkpt lat="43.532122308428896" lon="10.657697338620812"><ele>146.0</ele><time>2026-04-18T07:09:18.998Z</time></trkpt><trkpt lat="43.532219957600844" lon="10.657728351662547"><ele>146.0</ele><time>2026-04-18T07:09:19.998Z</time></trkpt><trkpt lat="43.53229950186194" lon="10.65776112490395"><ele>144.83333333333331</ele><time>2026-04-18T07:09:20.998Z</time></trkpt><trkpt lat="43.532373933162106" lon="10.657782917852195"><ele>143.66666666666666</ele><time>2026-04-18T07:09:21.998Z</time></trkpt><trkpt lat="43.53244635280551" lon="10.657807225371393"><ele>142.5</ele><time>2026-04-18T07:09:22.998Z</time></trkpt><trkpt lat="43.5325108096409" lon="10.657930104071887"><ele>141.33333333333334</ele><time>2026-04-18T07:09:24.998Z</time></trkpt><trkpt lat="43.532503852661264" lon="10.658022807920965"><ele>140.16666666666669</ele><time>2026-04-18T07:09:25.998Z</time></trkpt><trkpt lat="43.53245096285225" lon="10.658105369667204"><ele>139.0</ele><time>2026-04-18T07:09:26.998Z</time></trkpt><trkpt lat="43.532377076375795" lon="10.658166976655515"><ele>141.33333333333334</ele><time>2026-04-18T07:09:27.998Z</time></trkpt><trkpt lat="43.53229954377146" lon="10.65817502328256"><ele>143.66666666666669</ele><time>2026-04-18T07:09:28.998Z</time></trkpt><trkpt lat="43.53222230453373" lon="10.658150715763362"><ele>146.0</ele><time>2026-04-18T07:09:29.998Z</time></trkpt><trkpt lat="43.532142969820214" lon="10.65808902495602"><ele>148.33333333333334</ele><time>2026-04-18T07:09:30.998Z</time></trkpt><trkpt lat="43.532048170495344" lon="10.658027417967709"><ele>150.66666666666666</ele><time>2026-04-18T07:09:31.998Z</time></trkpt><trkpt lat="43.53196108252139" lon="10.657983748252185"><ele>153.0</ele><time>2026-04-18T07:09:32.998Z</time></trkpt><trkpt lat="43.53188614830704" lon="10.657934965575727"><ele>154.0</ele><time>2026-04-18T07:09:33.998Z</time></trkpt><trkpt lat="43.53181599177749" lon="10.657909400771054"><ele>155.0</ele><time>2026-04-18T07:09:34.998Z</time></trkpt><trkpt lat="43.5317414766583" lon="10.657919794330986"><ele>156.0</ele><time>2026-04-18T07:09:35.998Z</time></trkpt><trkpt lat="43.531684647354794" lon="10.657959189275893"><ele>157.0</ele><time>2026-04-18T07:09:36.998Z</time></trkpt><trkpt lat="43.53157949637951" lon="10.658012749637159"><ele>158.0</ele><time>2026-04-18T07:09:37.998Z</time></trkpt><trkpt lat="43.53160728238852" lon="10.658129928643497"><ele>159.0</ele><time>2026-04-18T07:09:38.998Z</time></trkpt><trkpt lat="43.53163200900288" lon="10.65822632052997"><ele>159.0</ele><time>2026-04-18T07:09:39.998Z</time></trkpt><trkpt lat="43.531694244633925" lon="10.658310558656844"><ele>159.0</ele><time>2026-04-18T07:09:40.998Z</time></trkpt><trkpt lat="43.53177005894811" lon="10.658373087654503"><ele>159.0</ele><time>2026-04-18T07:09:41.998Z</time></trkpt><trkpt lat="43.53184335869135" lon="10.658437795946988"><ele>159.0</ele><time>2026-04-18T07:09:42.998Z</time></trkpt><trkpt lat="43.53191950828166" lon="10.658499402935298"><ele>159.0</ele><time>2026-04-18T07:09:43.998Z</time></trkpt><trkpt lat="43.53197600230904" lon="10.658576432625445"><ele>159.0</ele><time>2026-04-18T07:09:44.998Z</time></trkpt><trkpt lat="43.532018121372474" lon="10.65866561607519"><ele>159.33333333333334</ele><time>2026-04-18T07:09:45.998Z</time></trkpt><trkpt lat="43.53206459902556" lon="10.658757230276855"><ele>159.66666666666666</ele><time>2026-04-18T07:09:46.998Z</time></trkpt><trkpt lat="43.53210948411704" lon="10.658869212503227"><ele>160.0</ele><time>2026-04-18T07:09:47.998Z</time></trkpt><trkpt lat="43.53215612940819" lon="10.658976249406727"><ele>160.33333333333331</ele><time>2026-04-18T07:09:48.998Z</time></trkpt><trkpt lat="43.53220734283657" lon="10.659075994054469"><ele>160.66666666666666</ele><time>2026-04-18T07:09:49.998Z</time></trkpt><trkpt lat="43.53225432340385" lon="10.65917867236832"><ele>161.0</ele><time>2026-04-18T07:09:50.998Z</time></trkpt><trkpt lat="43.53229686156244" lon="10.659279087568315"><ele>161.0</ele><time>2026-04-18T07:09:51.998Z</time></trkpt><trkpt lat="43.532357965636564" lon="10.6593834422628"><ele>161.0</ele><time>2026-04-18T07:09:52.998Z</time></trkpt><trkpt lat="43.53241676468731" lon="10.659481845806035"><ele>161.0</ele><time>2026-04-18T07:09:53.998Z</time></trkpt><trkpt lat="43.53249408774407" lon="10.659571280712875"><ele>161.0</ele><time>2026-04-18T07:09:54.998Z</time></trkpt><trkpt lat="43.53255083322854" lon="10.659666918228064"><ele>161.0</ele><time>2026-04-18T07:09:55.998Z</time></trkpt><trkpt lat="43.53261872664423" lon="10.659766998151932"><ele>160.0</ele><time>2026-04-18T07:09:56.998Z</time></trkpt><trkpt lat="43.532676142680955" lon="10.659875711436067"><ele>159.0</ele><time>2026-04-18T07:09:57.998Z</time></trkpt><trkpt lat="43.53275250181885" lon="10.659969924027715"><ele>158.0</ele><time>2026-04-18T07:09:58.998Z</time></trkpt><trkpt lat="43.53281741965891" lon="10.660080481330548"><ele>157.0</ele><time>2026-04-18T07:09:59.998Z</time></trkpt><trkpt lat="43.53288937829764" lon="10.660182153816018"><ele>156.0</ele><time>2026-04-18T07:10:00.998Z</time></trkpt><trkpt lat="43.53294411212535" lon="10.660289358357582"><ele>158.6</ele><time>2026-04-18T07:10:01.998Z</time></trkpt><trkpt lat="43.53299993560047" lon="10.660380469645057"><ele>161.2</ele><time>2026-04-18T07:10:02.998Z</time></trkpt><trkpt lat="43.533063428516996" lon="10.660493625337873"><ele>163.79999999999998</ele><time>2026-04-18T07:10:03.998Z</time></trkpt><trkpt lat="43.53315659337075" lon="10.660610385249052"><ele>166.39999999999998</ele><time>2026-04-18T07:10:04.998Z</time></trkpt><trkpt lat="43.5332481656629" lon="10.660716416324172"><ele>169.0</ele><time>2026-04-18T07:10:05.998Z</time></trkpt><trkpt lat="43.53333957031698" lon="10.66080325284103"><ele>169.0</ele><time>2026-04-18T07:10:06.998Z</time></trkpt><trkpt lat="43.53341173850329" lon="10.660857902849708"><ele>169.0</ele><time>2026-04-18T07:10:07.998Z</time></trkpt><trkpt lat="43.53348424196572" lon="10.660910122106467"><ele>169.0</ele><time>2026-04-18T07:10:08.998Z</time></trkpt><trkpt lat="43.53354551367791" lon="10.660951947803293"><ele>169.0</ele><time>2026-04-18T07:10:10.998Z</time></trkpt><trkpt lat="43.533608168404115" lon="10.660981284464393"><ele>169.0</ele><time>2026-04-18T07:10:13.998Z</time></trkpt><trkpt lat="43.53358624972732" lon="10.66106661223868"><ele>169.0</ele><time>2026-04-18T07:10:18.998Z</time></trkpt><trkpt lat="43.53351282425554" lon="10.6610309891502"><ele>169.0</ele><time>2026-04-18T07:10:21.998Z</time></trkpt><trkpt lat="43.533448912243855" lon="10.661003245050702"><ele>169.0</ele><time>2026-04-18T07:10:23.998Z</time></trkpt><trkpt lat="43.53336215954603" lon="10.660987822348867"><ele>169.0</ele><time>2026-04-18T07:10:25.998Z</time></trkpt><trkpt lat="43.53329703215839" lon="10.660981284464393"><ele>169.0</ele><time>2026-04-18T07:10:26.998Z</time></trkpt><trkpt lat="43.533178889233184" lon="10.660947589213643"><ele>169.0</ele><time>2026-04-18T07:10:28.998Z</time></trkpt><trkpt lat="43.53306929584922" lon="10.66092344933251"><ele>169.0</ele><time>2026-04-18T07:10:30.998Z</time></trkpt><trkpt lat="43.53301158644588" lon="10.660888412977252"><ele>169.0</ele><time>2026-04-18T07:10:31.998Z</time></trkpt><trkpt lat="43.53291423064054" lon="10.66084432416657"><ele>171.5</ele><time>2026-04-18T07:10:33.998Z</time></trkpt><trkpt lat="43.53284696586759" lon="10.66078372300664"><ele>174.0</ele><time>2026-04-18T07:10:35.998Z</time></trkpt><trkpt lat="43.53276461366893" lon="10.660729827369247"><ele>176.5</ele><time>2026-04-18T07:10:37.998Z</time></trkpt><trkpt lat="43.532685949507666" lon="10.660694036642704"><ele>179.0</ele><time>2026-04-18T07:10:39.998Z</time></trkpt><trkpt lat="43.53261763699682" lon="10.66069923342267"><ele>181.5</ele><time>2026-04-18T07:10:41.998Z</time></trkpt><trkpt lat="43.532663402188135" lon="10.660760169858728"><ele>184.0</ele><time>2026-04-18T07:10:44.998Z</time></trkpt><trkpt lat="43.53277555205257" lon="10.660767545933519"><ele>184.0</ele><time>2026-04-18T07:10:46.998Z</time></trkpt><trkpt lat="43.53286582514973" lon="10.660804929221664"><ele>184.0</ele><time>2026-04-18T07:10:47.998Z</time></trkpt><trkpt lat="43.53296355814071" lon="10.660850442955885"><ele>184.0</ele><time>2026-04-18T07:10:48.998Z</time></trkpt><trkpt lat="43.53306573354037" lon="10.66088975408176"><ele>184.0</ele><time>2026-04-18T07:10:49.998Z</time></trkpt><trkpt lat="43.533167950849545" lon="10.660917917276416"><ele>184.0</ele><time>2026-04-18T07:10:50.998Z</time></trkpt><trkpt lat="43.533267821225834" lon="10.660947505394612"><ele>181.0</ele><time>2026-04-18T07:10:51.998Z</time></trkpt><trkpt lat="43.53336236909361" lon="10.660981703559552"><ele>178.0</ele><time>2026-04-18T07:10:52.998Z</time></trkpt><trkpt lat="43.53344803214402" lon="10.661009280020986"><ele>175.0</ele><time>2026-04-18T07:10:53.998Z</time></trkpt><trkpt lat="43.533524894196105" lon="10.661027971665058"><ele>172.0</ele><time>2026-04-18T07:10:54.998Z</time></trkpt><trkpt lat="43.533607875037504" lon="10.661054290841017"><ele>169.0</ele><time>2026-04-18T07:10:55.998Z</time></trkpt><trkpt lat="43.53370703295202" lon="10.66108371132115"><ele>167.79999999999998</ele><time>2026-04-18T07:10:56.998Z</time></trkpt><trkpt lat="43.53381038181813" lon="10.661108437935505"><ele>166.6</ele><time>2026-04-18T07:10:57.998Z</time></trkpt><trkpt lat="43.53391720917405" lon="10.661130985255037"><ele>165.4</ele><time>2026-04-18T07:10:58.998Z</time></trkpt><trkpt lat="43.534010541665864" lon="10.66114682705203"><ele>164.2</ele><time>2026-04-18T07:10:59.998Z</time></trkpt><trkpt lat="43.53409498934032" lon="10.661159148449693"><ele>163.0</ele><time>2026-04-18T07:11:00.998Z</time></trkpt><trkpt lat="43.53416275702746" lon="10.661166189248357"><ele>163.0</ele><time>2026-04-18T07:11:01.998Z</time></trkpt><trkpt lat="43.53422939315767" lon="10.661234334121142"><ele>163.0</ele><time>2026-04-18T07:11:03.998Z</time></trkpt><trkpt lat="43.534237565513266" lon="10.661351932222638"><ele>163.0</ele><time>2026-04-18T07:11:05.998Z</time></trkpt><trkpt lat="43.5342048760909" lon="10.661450922499094"><ele>163.0</ele><time>2026-04-18T07:11:06.998Z</time></trkpt><trkpt lat="43.53415295020075" lon="10.661597857261693"><ele>163.0</ele><time>2026-04-18T07:11:07.998Z</time></trkpt><trkpt lat="43.53408564351828" lon="10.661778068179881"><ele>161.0</ele><time>2026-04-18T07:11:08.998Z</time></trkpt><trkpt lat="43.53400764990927" lon="10.662004631022608"><ele>159.0</ele><time>2026-04-18T07:11:09.998Z</time></trkpt><trkpt lat="43.533907947171045" lon="10.662247873852646"><ele>157.0</ele><time>2026-04-18T07:11:10.998Z</time></trkpt><trkpt lat="43.53380426302881" lon="10.662499833861983"><ele>157.0</ele><time>2026-04-18T07:11:11.998Z</time></trkpt><trkpt lat="43.53373226248057" lon="10.662734191874659"><ele>157.0</ele><time>2026-04-18T07:11:12.998Z</time></trkpt><trkpt lat="43.53365330495269" lon="10.662981122742092"><ele>157.0</ele><time>2026-04-18T07:11:13.998Z</time></trkpt><trkpt lat="43.53359634992064" lon="10.663206344480312"><ele>159.0</ele><time>2026-04-18T07:11:14.998Z</time></trkpt><trkpt lat="43.533548279705954" lon="10.663418574268615"><ele>161.0</ele><time>2026-04-18T07:11:15.998Z</time></trkpt><trkpt lat="43.53350813038976" lon="10.663592834035553"><ele>163.0</ele><time>2026-04-18T07:11:16.998Z</time></trkpt><trkpt lat="43.53348679844619" lon="10.663764411593474"><ele>165.0</ele><time>2026-04-18T07:11:17.998Z</time></trkpt><trkpt lat="43.53346718479277" lon="10.663941269750394"><ele>165.0</ele><time>2026-04-18T07:11:18.998Z</time></trkpt><trkpt lat="43.533447110134674" lon="10.664133299152054"><ele>165.0</ele><time>2026-04-18T07:11:19.998Z</time></trkpt><trkpt lat="43.5334231378916" lon="10.664302781234182"><ele>165.0</ele><time>2026-04-18T07:11:20.998Z</time></trkpt><trkpt lat="43.53337309792967" lon="10.664453320215143"><ele>165.0</ele><time>2026-04-18T07:11:21.998Z</time></trkpt><trkpt lat="43.53331123948426" lon="10.664594220007457"><ele>162.5</ele><time>2026-04-18T07:11:22.998Z</time></trkpt><trkpt lat="43.53322959974737" lon="10.66472682171563"><ele>160.0</ele><time>2026-04-18T07:11:23.998Z</time></trkpt><trkpt lat="43.53313262112768" lon="10.664845174188413"><ele>157.5</ele><time>2026-04-18T07:11:24.998Z</time></trkpt><trkpt lat="43.53302956562818" lon="10.664941230798759"><ele>155.0</ele><time>2026-04-18T07:11:25.998Z</time></trkpt><trkpt lat="43.53292206772001" lon="10.665008621300258"><ele>154.5</ele><time>2026-04-18T07:11:26.998Z</time></trkpt><trkpt lat="43.532813228707326" lon="10.665042148912944"><ele>154.0</ele><time>2026-04-18T07:11:27.998Z</time></trkpt><trkpt lat="43.5326815490085" lon="10.66502731294433"><ele>153.5</ele><time>2026-04-18T07:11:28.998Z</time></trkpt><trkpt lat="43.532549995038224" lon="10.664995629350342"><ele>153.0</ele><time>2026-04-18T07:11:29.998Z</time></trkpt><trkpt lat="43.53242661342354" lon="10.664981966848172"><ele>153.0</ele><time>2026-04-18T07:11:30.998Z</time></trkpt><trkpt lat="43.53231442164959" lon="10.664972830573715"><ele>153.0</ele><time>2026-04-18T07:11:31.998Z</time></trkpt><trkpt lat="43.53221199479283" lon="10.665036784494914"><ele>153.0</ele><time>2026-04-18T07:11:32.998Z</time></trkpt><trkpt lat="43.532114513258946" lon="10.66513870843748"><ele>153.0</ele><time>2026-04-18T07:11:33.998Z</time></trkpt><trkpt lat="43.53202344388099" lon="10.66530483775834"><ele>149.66666666666666</ele><time>2026-04-18T07:11:34.998Z</time></trkpt><trkpt lat="43.531930404755784" lon="10.665485635409752"><ele>146.33333333333331</ele><time>2026-04-18T07:11:35.998Z</time></trkpt><trkpt lat="43.53184373587699" lon="10.665675569335619"><ele>143.0</ele><time>2026-04-18T07:11:36.998Z</time></trkpt><trkpt lat="43.53174805645229" lon="10.665849912921587"><ele>143.0</ele><time>2026-04-18T07:11:37.998Z</time></trkpt><trkpt lat="43.53167081721456" lon="10.666026687259475"><ele>143.0</ele><time>2026-04-18T07:11:38.998Z</time></trkpt><trkpt lat="43.531586914363814" lon="10.666198851550618"><ele>143.0</ele><time>2026-04-18T07:11:39.998Z</time></trkpt><trkpt lat="43.531484319868994" lon="10.666384259248773"><ele>144.33333333333331</ele><time>2026-04-18T07:11:40.998Z</time></trkpt><trkpt lat="43.53135901041658" lon="10.66656002775828"><ele>145.66666666666666</ele><time>2026-04-18T07:11:41.998Z</time></trkpt><trkpt lat="43.531229593831604" lon="10.666750883693496"><ele>147.0</ele><time>2026-04-18T07:11:42.998Z</time></trkpt><trkpt lat="43.53109891996116" lon="10.666960431272784"><ele>151.0</ele><time>2026-04-18T07:11:43.998Z</time></trkpt><trkpt lat="43.53100252807469" lon="10.667154137055078"><ele>155.0</ele><time>2026-04-18T07:11:44.998Z</time></trkpt><trkpt lat="43.530886103439634" lon="10.667324960241716"><ele>159.0</ele><time>2026-04-18T07:11:45.998Z</time></trkpt><trkpt lat="43.53075601630241" lon="10.667473822842043"><ele>159.0</ele><time>2026-04-18T07:11:46.998Z</time></trkpt><trkpt lat="43.53059445511878" lon="10.667624613280099"><ele>159.0</ele><time>2026-04-18T07:11:47.998Z</time></trkpt><trkpt lat="43.53045506406904" lon="10.667774900803964"><ele>159.0</ele><time>2026-04-18T07:11:48.998Z</time></trkpt><trkpt lat="43.53032694667906" lon="10.66787824967007"><ele>160.33333333333334</ele><time>2026-04-18T07:11:49.998Z</time></trkpt><trkpt lat="43.53021052204401" lon="10.668059885511797"><ele>161.66666666666669</ele><time>2026-04-18T07:11:50.998Z</time></trkpt><trkpt lat="43.530071759637" lon="10.668249567980569"><ele>163.0</ele><time>2026-04-18T07:11:51.998Z</time></trkpt><trkpt lat="43.529960657510465" lon="10.668473532433312"><ele>162.33333333333334</ele><time>2026-04-18T07:11:52.998Z</time></trkpt><trkpt lat="43.52980580184937" lon="10.668676542128127"><ele>161.66666666666666</ele><time>2026-04-18T07:11:53.998Z</time></trkpt><trkpt lat="43.52967496034086" lon="10.668878713632624"><ele>161.0</ele><time>2026-04-18T07:11:54.998Z</time></trkpt><trkpt lat="43.52953397672952" lon="10.669071329767506"><ele>161.0</ele><time>2026-04-18T07:11:55.998Z</time></trkpt><trkpt lat="43.52940271612585" lon="10.669237207631273"><ele>161.0</ele><time>2026-04-18T07:11:56.998Z</time></trkpt><trkpt lat="43.529269946779614" lon="10.669404426599545"><ele>161.0</ele><time>2026-04-18T07:11:57.998Z</time></trkpt><trkpt lat="43.52909979414523" lon="10.66951313988368"><ele>161.66666666666666</ele><time>2026-04-18T07:11:58.998Z</time></trkpt><trkpt lat="43.52895864289582" lon="10.669673653329415"><ele>162.33333333333334</ele><time>2026-04-18T07:11:59.998Z</time></trkpt><trkpt lat="43.52881501898498" lon="10.669844560335083"><ele>163.0</ele><time>2026-04-18T07:12:00.998Z</time></trkpt><trkpt lat="43.528656223829394" lon="10.670015132064623"><ele>162.33333333333334</ele><time>2026-04-18T07:12:01.998Z</time></trkpt><trkpt lat="43.52853083055795" lon="10.670183356861276"><ele>161.66666666666666</ele><time>2026-04-18T07:12:02.998Z</time></trkpt><trkpt lat="43.528403886634415" lon="10.67034529523055"><ele>161.0</ele><time>2026-04-18T07:12:03.998Z</time></trkpt><trkpt lat="43.5282767331633" lon="10.67050949671368"><ele>161.0</ele><time>2026-04-18T07:12:04.998Z</time></trkpt><trkpt lat="43.52813038513393" lon="10.670676212767763"><ele>161.0</ele><time>2026-04-18T07:12:05.998Z</time></trkpt><trkpt lat="43.52798709649921" lon="10.67085784860949"><ele>161.0</ele><time>2026-04-18T07:12:06.998Z</time></trkpt><trkpt lat="43.52784284394563" lon="10.671035964051885"><ele>162.66666666666666</ele><time>2026-04-18T07:12:07.998Z</time></trkpt><trkpt lat="43.52770806294263" lon="10.671223886320993"><ele>164.33333333333334</ele><time>2026-04-18T07:12:08.998Z</time></trkpt><trkpt lat="43.52756854616434" lon="10.67141331733267"><ele>166.0</ele><time>2026-04-18T07:12:09.998Z</time></trkpt><trkpt lat="43.52744579319239" lon="10.671619595969721"><ele>166.0</ele><time>2026-04-18T07:12:10.998Z</time></trkpt><trkpt lat="43.527351371053165" lon="10.67183794454734"><ele>166.0</ele><time>2026-04-18T07:12:11.998Z</time></trkpt><trkpt lat="43.52725845765651" lon="10.672042127708599"><ele>166.0</ele><time>2026-04-18T07:12:12.998Z</time></trkpt><trkpt lat="43.52715896446586" lon="10.67221957259874"><ele>167.25</ele><time>2026-04-18T07:12:13.998Z</time></trkpt><trkpt lat="43.52704555731595" lon="10.672376230369016"><ele>168.5</ele><time>2026-04-18T07:12:14.998Z</time></trkpt><trkpt lat="43.52693629920811" lon="10.672513442123934"><ele>169.75</ele><time>2026-04-18T07:12:15.998Z</time></trkpt><trkpt lat="43.52684237998307" lon="10.672655096287533"><ele>171.0</ele><time>2026-04-18T07:12:16.998Z</time></trkpt><trkpt lat="43.52675072387189" lon="10.672727180654809"><ele>171.0</ele><time>2026-04-18T07:12:17.998Z</time></trkpt><trkpt lat="43.52664150767357" lon="10.67277269438903"><ele>171.0</ele><time>2026-04-18T07:12:18.998Z</time></trkpt><trkpt lat="43.52648019794703" lon="10.672653168449804"><ele>171.0</ele><time>2026-04-18T07:12:19.998Z</time></trkpt><trkpt lat="43.52633954961181" lon="10.67264076323311"><ele>171.0</ele><time>2026-04-18T07:12:20.998Z</time></trkpt><trkpt lat="43.52616767868728" lon="10.67263347097735"><ele>170.8</ele><time>2026-04-18T07:12:21.998Z</time></trkpt><trkpt lat="43.526080716441875" lon="10.672678565616414"><ele>170.60000000000002</ele><time>2026-04-18T07:12:22.998Z</time></trkpt><trkpt lat="43.52598893460215" lon="10.672756182039782"><ele>170.4</ele><time>2026-04-18T07:12:23.998Z</time></trkpt><trkpt lat="43.52591027044088" lon="10.672882748777672"><ele>170.2</ele><time>2026-04-18T07:12:24.998Z</time></trkpt><trkpt lat="43.525874228257244" lon="10.673032198111223"><ele>170.0</ele><time>2026-04-18T07:12:25.998Z</time></trkpt><trkpt lat="43.52584111973972" lon="10.673186760405706"><ele>170.0</ele><time>2026-04-18T07:12:26.998Z</time></trkpt><trkpt lat="43.52580415554673" lon="10.673389853919552"><ele>170.0</ele><time>2026-04-18T07:12:27.998Z</time></trkpt><trkpt lat="43.52578718219281" lon="10.673586241910861"><ele>170.0</ele><time>2026-04-18T07:12:28.998Z</time></trkpt><trkpt lat="43.52576488633037" lon="10.673799980441736"><ele>172.66666666666666</ele><time>2026-04-18T07:12:29.998Z</time></trkpt><trkpt lat="43.525748457800155" lon="10.674023609618352"><ele>175.33333333333334</ele><time>2026-04-18T07:12:30.998Z</time></trkpt><trkpt lat="43.525715265463596" lon="10.67424338311951"><ele>178.0</ele><time>2026-04-18T07:12:31.998Z</time></trkpt><trkpt lat="43.52568182166994" lon="10.674449158842371"><ele>179.25</ele><time>2026-04-18T07:12:32.998Z</time></trkpt><trkpt lat="43.525665812234884" lon="10.67464848049979"><ele>180.5</ele><time>2026-04-18T07:12:33.998Z</time></trkpt><trkpt lat="43.52563664321185" lon="10.674834474931167"><ele>181.75</ele><time>2026-04-18T07:12:34.998Z</time></trkpt><trkpt lat="43.52560290605158" lon="10.674999430785585"><ele>183.0</ele><time>2026-04-18T07:12:35.998Z</time></trkpt><trkpt lat="43.525585974607175" lon="10.675159860412288"><ele>183.0</ele><time>2026-04-18T07:12:36.998Z</time></trkpt><trkpt lat="43.525566654320365" lon="10.675303861508775"><ele>183.0</ele><time>2026-04-18T07:12:37.998Z</time></trkpt><trkpt lat="43.52553333625526" lon="10.675439313064027"><ele>183.0</ele><time>2026-04-18T07:12:38.998Z</time></trkpt><trkpt lat="43.52549042091102" lon="10.67557920702796"><ele>183.0</ele><time>2026-04-18T07:12:39.998Z</time></trkpt><trkpt lat="43.52544536818147" lon="10.675709126527119"><ele>183.0</ele><time>2026-04-18T07:12:40.998Z</time></trkpt><trkpt lat="43.525387072044914" lon="10.675803255299735"><ele>183.0</ele><time>2026-04-18T07:12:41.998Z</time></trkpt><trkpt lat="43.525333134498005" lon="10.675908364365506"><ele>183.0</ele><time>2026-04-18T07:12:42.998Z</time></trkpt><trkpt lat="43.525223876390164" lon="10.67597449758153"><ele>183.0</ele><time>2026-04-18T07:12:43.998Z</time></trkpt><trkpt lat="43.52510602683157" lon="10.676036020750809"><ele>183.0</ele><time>2026-04-18T07:12:44.998Z</time></trkpt><trkpt lat="43.525007749016886" lon="10.676118247220922"><ele>182.75</ele><time>2026-04-18T07:12:46Z</time></trkpt><trkpt lat="43.52490980647833" lon="10.676206760118413"><ele>182.5</ele><time>2026-04-18T07:12:47Z</time></trkpt><trkpt lat="43.5248222574997" lon="10.67629309372108"><ele>182.25</ele><time>2026-04-18T07:12:48Z</time></trkpt><trkpt lat="43.52472653616548" lon="10.676390575254965"><ele>182.0</ele><time>2026-04-18T07:12:49Z</time></trkpt><trkpt lat="43.52464741099954" lon="10.676498534167814"><ele>182.0</ele><time>2026-04-18T07:12:50Z</time></trkpt><trkpt lat="43.52458726208173" lon="10.676628398121903"><ele>182.0</ele><time>2026-04-18T07:12:51Z</time></trkpt><trkpt lat="43.52455583624677" lon="10.676719814393456"><ele>182.0</ele><time>2026-04-18T07:12:52Z</time></trkpt><trkpt lat="43.5245003356901" lon="10.676853151961355"><ele>182.0</ele><time>2026-04-18T07:12:53Z</time></trkpt><trkpt lat="43.52448790338219" lon="10.676955515528729"><ele>182.0</ele><time>2026-04-18T07:12:54Z</time></trkpt><trkpt lat="43.524488003778444" lon="10.67704829621753"><ele>182.0</ele><time>2026-04-18T07:12:55Z</time></trkpt><trkpt lat="43.52452674150326" lon="10.677150341481605"><ele>180.83333333333331</ele><time>2026-04-18T07:12:56Z</time></trkpt><trkpt lat="43.52458085505704" lon="10.677258574280799"><ele>179.66666666666666</ele><time>2026-04-18T07:12:57Z</time></trkpt><trkpt lat="43.52464350634422" lon="10.67732025578136"><ele>178.5</ele><time>2026-04-18T07:12:58Z</time></trkpt><trkpt lat="43.524697157594865" lon="10.677441833550741"><ele>177.33333333333334</ele><time>2026-04-18T07:13:00Z</time></trkpt><trkpt lat="43.52470956281156" lon="10.67753755488496"><ele>176.16666666666669</ele><time>2026-04-18T07:13:01Z</time></trkpt><trkpt lat="43.52473370269269" lon="10.677645597616841"><ele>175.0</ele><time>2026-04-18T07:13:02Z</time></trkpt><trkpt lat="43.524718196171825" lon="10.677762106070926"><ele>174.4</ele><time>2026-04-18T07:13:03Z</time></trkpt><trkpt lat="43.52471413094879" lon="10.677881212914993"><ele>173.8</ele><time>2026-04-18T07:13:04Z</time></trkpt><trkpt lat="43.52471580732942" lon="10.678005265081932"><ele>173.2</ele><time>2026-04-18T07:13:05Z</time></trkpt><trkpt lat="43.52472351868034" lon="10.67813853734236"><ele>172.6</ele><time>2026-04-18T07:13:06Z</time></trkpt><trkpt lat="43.524728128727084" lon="10.678268959755709"><ele>172.0</ele><time>2026-04-18T07:13:07Z</time></trkpt><trkpt lat="43.52474489253343" lon="10.678393933931996"><ele>172.0</ele><time>2026-04-18T07:13:08Z</time></trkpt><trkpt lat="43.52475578900755" lon="10.678517902279903"><ele>172.0</ele><time>2026-04-18T07:13:09Z</time></trkpt><trkpt lat="43.52476350035847" lon="10.678632399077227"><ele>172.0</ele><time>2026-04-18T07:13:10Z</time></trkpt><trkpt lat="43.52479497440488" lon="10.678736837590746"><ele>172.0</ele><time>2026-04-18T07:13:11Z</time></trkpt><trkpt lat="43.52482246704728" lon="10.678849071274213"><ele>172.0</ele><time>2026-04-18T07:13:12Z</time></trkpt><trkpt lat="43.524844972457295" lon="10.678957952196411"><ele>172.0</ele><time>2026-04-18T07:13:13Z</time></trkpt><trkpt lat="43.524829801212555" lon="10.67909566686552"><ele>173.39999999999998</ele><time>2026-04-18T07:13:14Z</time></trkpt><trkpt lat="43.52483612954945" lon="10.679245870570353"><ele>174.79999999999998</ele><time>2026-04-18T07:13:15Z</time></trkpt><trkpt lat="43.52484684863702" lon="10.679382787373227"><ele>176.2</ele><time>2026-04-18T07:13:16Z</time></trkpt><trkpt lat="43.524833317650675" lon="10.679525100490796"><ele>177.6</ele><time>2026-04-18T07:13:17Z</time></trkpt><trkpt lat="43.52481772181875" lon="10.67966576151267"><ele>179.0</ele><time>2026-04-18T07:13:18Z</time></trkpt><trkpt lat="43.52480335416273" lon="10.67980238338528"><ele>179.75</ele><time>2026-04-18T07:13:19Z</time></trkpt><trkpt lat="43.524804760078744" lon="10.67995165732382"><ele>180.5</ele><time>2026-04-18T07:13:20Z</time></trkpt><trkpt lat="43.52483682512141" lon="10.680097332618262"><ele>181.25</ele><time>2026-04-18T07:13:21Z</time></trkpt><trkpt lat="43.524872324556775" lon="10.680247630890493"><ele>182.0</ele><time>2026-04-18T07:13:22Z</time></trkpt><trkpt lat="43.524908773258666" lon="10.680418863989951"><ele>180.6</ele><time>2026-04-18T07:13:23Z</time></trkpt><trkpt lat="43.52493097922822" lon="10.680579903403785"><ele>179.2</ele><time>2026-04-18T07:13:24Z</time></trkpt><trkpt lat="43.52492204405696" lon="10.680716307843738"><ele>177.8</ele><time>2026-04-18T07:13:25Z</time></trkpt><trkpt lat="43.524963953572815" lon="10.68083558232587"><ele>176.4</ele><time>2026-04-18T07:13:26Z</time></trkpt><trkpt lat="43.52496772542924" lon="10.680991569543892"><ele>175.0</ele><time>2026-04-18T07:13:27Z</time></trkpt><trkpt lat="43.52496240292073" lon="10.681127188737207"><ele>174.25</ele><time>2026-04-18T07:13:28Z</time></trkpt><trkpt lat="43.524939059320396" lon="10.681298263380938"><ele>173.5</ele><time>2026-04-18T07:13:29Z</time></trkpt><trkpt lat="43.52493130605996" lon="10.68146548234921"><ele>172.75</ele><time>2026-04-18T07:13:30Z</time></trkpt><trkpt lat="43.524940065148776" lon="10.681626079613977"><ele>172.0</ele><time>2026-04-18T07:13:31Z</time></trkpt><trkpt lat="43.524931767064636" lon="10.681764129559213"><ele>172.0</ele><time>2026-04-18T07:13:32Z</time></trkpt><trkpt lat="43.52493260525495" lon="10.681896982724481"><ele>172.0</ele><time>2026-04-18T07:13:33Z</time></trkpt><trkpt lat="43.524931180331414" lon="10.682020783434325"><ele>172.0</ele><time>2026-04-18T07:13:34Z</time></trkpt><trkpt lat="43.524926528375154" lon="10.682132095108443"><ele>172.0</ele><time>2026-04-18T07:13:35Z</time></trkpt><trkpt lat="43.5249311384219" lon="10.682241311306768"><ele>172.0</ele><time>2026-04-18T07:13:36Z</time></trkpt><trkpt lat="43.52494287308634" lon="10.682348683486396"><ele>172.0</ele><time>2026-04-18T07:13:37Z</time></trkpt><trkpt lat="43.52496558774769" lon="10.682468219755002"><ele>171.6</ele><time>2026-04-18T07:13:38Z</time></trkpt><trkpt lat="43.52503305379368" lon="10.682569308940067"><ele>171.2</ele><time>2026-04-18T07:13:39Z</time></trkpt><trkpt lat="43.525135354578" lon="10.682625601123958"><ele>170.8</ele><time>2026-04-18T07:13:40Z</time></trkpt><trkpt lat="43.5252352641931" lon="10.682653769695994"><ele>170.4</ele><time>2026-04-18T07:13:41Z</time></trkpt><trkpt lat="43.525325525942364" lon="10.682696436040596"><ele>170.0</ele><time>2026-04-18T07:13:42Z</time></trkpt><trkpt lat="43.52539774597758" lon="10.68275314474894"><ele>169.0</ele><time>2026-04-18T07:13:43Z</time></trkpt><trkpt lat="43.52546235220004" lon="10.682831756998237"><ele>168.0</ele><time>2026-04-18T07:13:44Z</time></trkpt><trkpt lat="43.52551285358211" lon="10.682925863973916"><ele>167.0</ele><time>2026-04-18T07:13:45Z</time></trkpt><trkpt lat="43.5255555664183" lon="10.68303358323958"><ele>166.0</ele><time>2026-04-18T07:13:46Z</time></trkpt><trkpt lat="43.52560131348998" lon="10.683110263208563"><ele>165.0</ele><time>2026-04-18T07:13:47Z</time></trkpt><trkpt lat="43.52561740674407" lon="10.683196848268325"><ele>164.0</ele><time>2026-04-18T07:13:48Z</time></trkpt><trkpt lat="43.52559590716243" lon="10.68328158930939"><ele>164.0</ele><time>2026-04-18T07:13:49Z</time></trkpt><trkpt lat="43.525576411483186" lon="10.683426331628517"><ele>164.0</ele><time>2026-04-18T07:13:50Z</time></trkpt><trkpt lat="43.5254819132793" lon="10.683434307585175"><ele>164.0</ele><time>2026-04-18T07:13:51Z</time></trkpt><trkpt lat="43.5253931070152" lon="10.683519383902366"><ele>164.0</ele><time>2026-04-18T07:13:52Z</time></trkpt><trkpt lat="43.52529545784325" lon="10.683596078316386"><ele>164.0</ele><time>2026-04-18T07:13:53Z</time></trkpt><trkpt lat="43.525180667679315" lon="10.683679226795848"><ele>161.79999999999998</ele><time>2026-04-18T07:13:54Z</time></trkpt><trkpt lat="43.525066128972476" lon="10.683757262314375"><ele>159.6</ele><time>2026-04-18T07:13:55Z</time></trkpt><trkpt lat="43.52496956944794" lon="10.683817192922051"><ele>157.4</ele><time>2026-04-18T07:13:56Z</time></trkpt><trkpt lat="43.52488373875946" lon="10.683867065245922"><ele>155.2</ele><time>2026-04-18T07:13:57Z</time></trkpt><trkpt lat="43.52481022946865" lon="10.683893468240912"><ele>153.0</ele><time>2026-04-18T07:13:58Z</time></trkpt><trkpt lat="43.52470591668368" lon="10.68389480934542"><ele>153.0</ele><time>2026-04-18T07:14:00Z</time></trkpt><trkpt lat="43.52462251674712" lon="10.68388751708966"><ele>153.0</ele><time>2026-04-18T07:14:02Z</time></trkpt><trkpt lat="43.52453262083561" lon="10.683955745781477"><ele>153.0</ele><time>2026-04-18T07:14:04Z</time></trkpt><trkpt lat="43.524496662471" lon="10.684116007770116"><ele>153.0</ele><time>2026-04-18T07:14:06Z</time></trkpt><trkpt lat="43.524492681066995" lon="10.68422614597779"><ele>153.0</ele><time>2026-04-18T07:14:07Z</time></trkpt><trkpt lat="43.52451679947637" lon="10.6843239599437"><ele>151.4</ele><time>2026-04-18T07:14:08Z</time></trkpt><trkpt lat="43.52455554534078" lon="10.684416498998816"><ele>149.8</ele><time>2026-04-18T07:14:09Z</time></trkpt><trkpt lat="43.52461555976749" lon="10.68448112347227"><ele>148.2</ele><time>2026-04-18T07:14:10Z</time></trkpt><trkpt lat="43.5246798070553" lon="10.684530325243887"><ele>146.6</ele><time>2026-04-18T07:14:11Z</time></trkpt><trkpt lat="43.52481014564962" lon="10.684547843421516"><ele>145.0</ele><time>2026-04-18T07:14:12Z</time></trkpt><trkpt lat="43.52491097994477" lon="10.684574833149728"><ele>145.0</ele><time>2026-04-18T07:14:13Z</time></trkpt><trkpt lat="43.525001588318055" lon="10.684612551714"><ele>145.0</ele><time>2026-04-18T07:14:14Z</time></trkpt><trkpt lat="43.52510359607965" lon="10.68466971629363"><ele>145.0</ele><time>2026-04-18T07:14:15Z</time></trkpt><trkpt lat="43.52517417170436" lon="10.684738699356732"><ele>145.0</ele><time>2026-04-18T07:14:16Z</time></trkpt><trkpt lat="43.52523988582522" lon="10.684836013252553"><ele>145.0</ele><time>2026-04-18T07:14:17Z</time></trkpt><trkpt lat="43.525277722914545" lon="10.684967871046885"><ele>145.0</ele><time>2026-04-18T07:14:18Z</time></trkpt><trkpt lat="43.52530124135644" lon="10.68509526551765"><ele>145.0</ele><time>2026-04-18T07:14:19Z</time></trkpt><trkpt lat="43.52532739289433" lon="10.685244714851198"><ele>145.0</ele><time>2026-04-18T07:14:20Z</time></trkpt><trkpt lat="43.52535291578949" lon="10.68538360298675"><ele>145.0</ele><time>2026-04-18T07:14:21Z</time></trkpt><trkpt lat="43.52539013143957" lon="10.6855277717213"><ele>145.0</ele><time>2026-04-18T07:14:22Z</time></trkpt><trkpt lat="43.52542265322388" lon="10.685659619058189"><ele>145.8</ele><time>2026-04-18T07:14:23Z</time></trkpt><trkpt lat="43.5254671192202" lon="10.685802530507264"><ele>146.6</ele><time>2026-04-18T07:14:24Z</time></trkpt><trkpt lat="43.52549649779082" lon="10.68594451994699"><ele>147.4</ele><time>2026-04-18T07:14:25Z</time></trkpt><trkpt lat="43.52551460270167" lon="10.686081312606749"><ele>148.2</ele><time>2026-04-18T07:14:26Z</time></trkpt><trkpt lat="43.52553220469833" lon="10.686234114701566"><ele>149.0</ele><time>2026-04-18T07:14:27Z</time></trkpt><trkpt lat="43.525532749522036" lon="10.686369314799725"><ele>146.0</ele><time>2026-04-18T07:14:28Z</time></trkpt><trkpt lat="43.525562086183136" lon="10.686509627858817"><ele>143.0</ele><time>2026-04-18T07:14:29Z</time></trkpt><trkpt lat="43.52557486858547" lon="10.6866676267336"><ele>140.0</ele><time>2026-04-18T07:14:30Z</time></trkpt><trkpt lat="43.52557390466661" lon="10.686830403293191"><ele>137.0</ele><time>2026-04-18T07:14:31Z</time></trkpt><trkpt lat="43.525543687905675" lon="10.686996616433083"><ele>135.25</ele><time>2026-04-18T07:14:32Z</time></trkpt><trkpt lat="43.525503580499" lon="10.687168696905195"><ele>133.5</ele><time>2026-04-18T07:14:33Z</time></trkpt><trkpt lat="43.525463053997164" lon="10.687340106825053"><ele>131.75</ele><time>2026-04-18T07:14:34Z</time></trkpt><trkpt lat="43.52540106982321" lon="10.687526939446746"><ele>130.0</ele><time>2026-04-18T07:14:35Z</time></trkpt><trkpt lat="43.52534160022021" lon="10.68771620282036"><ele>127.0</ele><time>2026-04-18T07:14:36Z</time></trkpt><trkpt lat="43.525286405387824" lon="10.687914770106493"><ele>124.0</ele><time>2026-04-18T07:14:37Z</time></trkpt><trkpt lat="43.52523334794075" lon="10.68813353777927"><ele>121.0</ele><time>2026-04-18T07:14:38Z</time></trkpt><trkpt lat="43.52518002361116" lon="10.688350649586505"><ele>121.0</ele><time>2026-04-18T07:14:39Z</time></trkpt><trkpt lat="43.52514994235683" lon="10.688568585787086"><ele>121.0</ele><time>2026-04-18T07:14:40Z</time></trkpt><trkpt lat="43.52513435766429" lon="10.688801324004949"><ele>121.0</ele><time>2026-04-18T07:14:41Z</time></trkpt><trkpt lat="43.5251055658269" lon="10.68901690655452"><ele>120.75</ele><time>2026-04-18T07:14:42Z</time></trkpt><trkpt lat="43.525079414289" lon="10.689224358658016"><ele>120.5</ele><time>2026-04-18T07:14:43Z</time></trkpt><trkpt lat="43.525044294114714" lon="10.689414041126788"><ele>120.25</ele><time>2026-04-18T07:14:44Z</time></trkpt><trkpt lat="43.525017388205534" lon="10.689601041386545"><ele>120.0</ele><time>2026-04-18T07:14:45Z</time></trkpt><trkpt lat="43.524998948018556" lon="10.689775468791545"><ele>120.0</ele><time>2026-04-18T07:14:46Z</time></trkpt><trkpt lat="43.52499387696714" lon="10.689972862611235"><ele>120.0</ele><time>2026-04-18T07:14:47Z</time></trkpt><trkpt lat="43.5250069946456" lon="10.69017780014378"><ele>120.0</ele><time>2026-04-18T07:14:48Z</time></trkpt><trkpt lat="43.52503809150637" lon="10.690405201176825"><ele>118.66666666666666</ele><time>2026-04-18T07:14:49Z</time></trkpt><trkpt lat="43.52508268323124" lon="10.690654478977146"><ele>117.33333333333333</ele><time>2026-04-18T07:14:50Z</time></trkpt><trkpt lat="43.525102548341756" lon="10.690907696271958"><ele>116.0</ele><time>2026-04-18T07:14:51Z</time></trkpt><trkpt lat="43.52514269765795" lon="10.69114867598814"><ele>114.0</ele><time>2026-04-18T07:14:52Z</time></trkpt><trkpt lat="43.525186241644924" lon="10.6913925055514"><ele>112.0</ele><time>2026-04-18T07:14:53Z</time></trkpt><trkpt lat="43.525250782299345" lon="10.691633736724677"><ele>110.0</ele><time>2026-04-18T07:14:54Z</time></trkpt><trkpt lat="43.52531305983991" lon="10.691864322880926"><ele>108.66666666666666</ele><time>2026-04-18T07:14:55Z</time></trkpt><trkpt lat="43.52534834765226" lon="10.692098345617477"><ele>107.33333333333334</ele><time>2026-04-18T07:14:56Z</time></trkpt><trkpt lat="43.525378564413195" lon="10.692333206544344"><ele>106.0</ele><time>2026-04-18T07:14:57Z</time></trkpt><trkpt lat="43.52539796851904" lon="10.692567396918957"><ele>106.75</ele><time>2026-04-18T07:14:58Z</time></trkpt><trkpt lat="43.52540899072171" lon="10.692775268117611"><ele>107.5</ele><time>2026-04-18T07:14:59Z</time></trkpt><trkpt lat="43.52540756579817" lon="10.692958161244814"><ele>108.25</ele><time>2026-04-18T07:15:00Z</time></trkpt><trkpt lat="43.52541632488698" lon="10.693134684125607"><ele>109.0</ele><time>2026-04-18T07:15:01Z</time></trkpt><trkpt lat="43.52543929130167" lon="10.693311374644463"><ele>109.0</ele><time>2026-04-18T07:15:02Z</time></trkpt><trkpt lat="43.525492474477296" lon="10.693478006879513"><ele>109.0</ele><time>2026-04-18T07:15:03Z</time></trkpt><trkpt lat="43.52556585803956" lon="10.693662827844445"><ele>109.0</ele><time>2026-04-18T07:15:04Z</time></trkpt><trkpt lat="43.52564737204791" lon="10.6938482355426"><ele>109.0</ele><time>2026-04-18T07:15:05Z</time></trkpt><trkpt lat="43.525734585750406" lon="10.694022914404696"><ele>108.5</ele><time>2026-04-18T07:15:06Z</time></trkpt><trkpt lat="43.525805119465595" lon="10.69419658743841"><ele>108.0</ele><time>2026-04-18T07:15:07Z</time></trkpt><trkpt lat="43.52586224213571" lon="10.694368919367617"><ele>107.5</ele><time>2026-04-18T07:15:08Z</time></trkpt><trkpt lat="43.52586584635407" lon="10.694543598229712"><ele>107.0</ele><time>2026-04-18T07:15:09Z</time></trkpt><trkpt lat="43.52586685218245" lon="10.694713499407"><ele>106.6</ele><time>2026-04-18T07:15:10Z</time></trkpt><trkpt lat="43.5258463584292" lon="10.69485867396993"><ele>106.19999999999999</ele><time>2026-04-18T07:15:11Z</time></trkpt><trkpt lat="43.525800551328366" lon="10.694999741400308"><ele>105.8</ele><time>2026-04-18T07:15:12Z</time></trkpt><trkpt lat="43.52575105619014" lon="10.695122368643707"><ele>105.4</ele><time>2026-04-18T07:15:13Z</time></trkpt><trkpt lat="43.52570139341385" lon="10.695212977016991"><ele>105.0</ele><time>2026-04-18T07:15:14Z</time></trkpt><trkpt lat="43.5256555444035" lon="10.695314733321494"><ele>103.33333333333334</ele><time>2026-04-18T07:15:15Z</time></trkpt><trkpt lat="43.5256164428252" lon="10.695419339473075"><ele>101.66666666666667</ele><time>2026-04-18T07:15:16Z</time></trkpt><trkpt lat="43.52563475728363" lon="10.695541212345189"><ele>100.0</ele><time>2026-04-18T07:15:17Z</time></trkpt><trkpt lat="43.5257255752045" lon="10.695903562019296"><ele>100.0</ele><time>2026-04-18T07:15:20Z</time></trkpt><trkpt lat="43.525741584639555" lon="10.696036079908438"><ele>100.0</ele><time>2026-04-18T07:15:21Z</time></trkpt><trkpt lat="43.525746949057584" lon="10.696164574484058"><ele>100.0</ele><time>2026-04-18T07:15:22Z</time></trkpt><trkpt lat="43.52574585941017" lon="10.696297343830295"><ele>100.0</ele><time>2026-04-18T07:15:23Z</time></trkpt><trkpt lat="43.52573194545091" lon="10.696437573070355"><ele>100.0</ele><time>2026-04-18T07:15:24Z</time></trkpt><trkpt lat="43.52571673229665" lon="10.696614766503401"><ele>98.75</ele><time>2026-04-18T07:15:25Z</time></trkpt><trkpt lat="43.52570256688029" lon="10.696807298819252"><ele>97.5</ele><time>2026-04-18T07:15:26Z</time></trkpt><trkpt lat="43.52564108562053" lon="10.69699580782158"><ele>96.25</ele><time>2026-04-18T07:15:27Z</time></trkpt><trkpt lat="43.525575748685306" lon="10.69717316889269"><ele>95.0</ele><time>2026-04-18T07:15:28Z</time></trkpt><trkpt lat="43.525510998483306" lon="10.697328737015553"><ele>94.5</ele><time>2026-04-18T07:15:29Z</time></trkpt><trkpt lat="43.52545986887396" lon="10.697485310966798"><ele>94.0</ele><time>2026-04-18T07:15:30Z</time></trkpt><trkpt lat="43.52541879754842" lon="10.697669042284318"><ele>93.5</ele><time>2026-04-18T07:15:31Z</time></trkpt><trkpt lat="43.525414983782476" lon="10.69787523710234"><ele>93.0</ele><time>2026-04-18T07:15:32Z</time></trkpt><trkpt lat="43.52544126104892" lon="10.69808587432904"><ele>92.0</ele><time>2026-04-18T07:15:33Z</time></trkpt><trkpt lat="43.52548149418414" lon="10.698294918994138"><ele>91.0</ele><time>2026-04-18T07:15:34Z</time></trkpt><trkpt lat="43.52551041175008" lon="10.6984851043771"><ele>90.0</ele><time>2026-04-18T07:15:35Z</time></trkpt><trkpt lat="43.52551845837713" lon="10.698668500418494"><ele>89.0</ele><time>2026-04-18T07:15:36Z</time></trkpt><trkpt lat="43.52550232321352" lon="10.698862038562725"><ele>88.25</ele><time>2026-04-18T07:15:37Z</time></trkpt><trkpt lat="43.52544205732972" lon="10.699030933911631"><ele>87.5</ele><time>2026-04-18T07:15:38Z</time></trkpt><trkpt lat="43.5253767203945" lon="10.699192201728652"><ele>86.75</ele><time>2026-04-18T07:15:39Z</time></trkpt><trkpt lat="43.52533359550268" lon="10.699317259723971"><ele>86.0</ele><time>2026-04-18T07:15:40Z</time></trkpt><trkpt lat="43.52530333683223" lon="10.699465200314949"><ele>84.0</ele><time>2026-04-18T07:15:40.999Z</time></trkpt><trkpt lat="43.52529596075744" lon="10.69960501045985"><ele>82.0</ele><time>2026-04-18T07:15:41.999Z</time></trkpt><trkpt lat="43.52532408204258" lon="10.699765020991396"><ele>80.0</ele><time>2026-04-18T07:15:42.999Z</time></trkpt><trkpt lat="43.525360752868956" lon="10.699935676539969"><ele>78.0</ele><time>2026-04-18T07:15:43.999Z</time></trkpt><trkpt lat="43.525426634627884" lon="10.70012284443779"><ele>75.0</ele><time>2026-04-18T07:15:44.999Z</time></trkpt><trkpt lat="43.52550307758481" lon="10.700306240479183"><ele>72.0</ele><time>2026-04-18T07:15:45.999Z</time></trkpt><trkpt lat="43.52555014197112" lon="10.700461808602046"><ele>69.0</ele><time>2026-04-18T07:15:46.999Z</time></trkpt><trkpt lat="43.52558572315008" lon="10.700598014528584"><ele>66.0</ele><time>2026-04-18T07:15:47.999Z</time></trkpt><trkpt lat="43.525643851648574" lon="10.700739920149278"><ele>66.0</ele><time>2026-04-18T07:15:48.999Z</time></trkpt><trkpt lat="43.525674194138055" lon="10.700887525464129"><ele>66.0</ele><time>2026-04-18T07:15:49.999Z</time></trkpt><trkpt lat="43.52569577753872" lon="10.701021719733905"><ele>66.0</ele><time>2026-04-18T07:15:50.999Z</time></trkpt><trkpt lat="43.52570449471802" lon="10.701159182945919"><ele>66.0</ele><time>2026-04-18T07:15:51.999Z</time></trkpt><trkpt lat="43.52571023632169" lon="10.701303938413691"><ele>66.0</ele><time>2026-04-18T07:15:52.999Z</time></trkpt><trkpt lat="43.525715768377786" lon="10.701441401625704"><ele>65.0</ele><time>2026-04-18T07:15:53.999Z</time></trkpt><trkpt lat="43.52572674867094" lon="10.701569309468102"><ele>64.0</ele><time>2026-04-18T07:15:54.999Z</time></trkpt><trkpt lat="43.52573961489231" lon="10.701700318614675"><ele>63.0</ele><time>2026-04-18T07:15:55.999Z</time></trkpt><trkpt lat="43.52574669760049" lon="10.701818671087457"><ele>62.0</ele><time>2026-04-18T07:15:56.999Z</time></trkpt><trkpt lat="43.525764048140054" lon="10.701935682455732"><ele>61.0</ele><time>2026-04-18T07:15:57.999Z</time></trkpt><trkpt lat="43.52578965485424" lon="10.702049089605643"><ele>60.0</ele><time>2026-04-18T07:15:58.999Z</time></trkpt><trkpt lat="43.52581337564022" lon="10.702172974134518"><ele>59.57142857142857</ele><time>2026-04-18T07:15:59.999Z</time></trkpt><trkpt lat="43.525846693705326" lon="10.702266516173912"><ele>59.14285714285714</ele><time>2026-04-18T07:16:00.999Z</time></trkpt><trkpt lat="43.52585968565524" lon="10.702360896403624"><ele>58.71428571428571</ele><time>2026-04-18T07:16:01.999Z</time></trkpt><trkpt lat="43.5258844122696" lon="10.702441446493102"><ele>58.285714285714285</ele><time>2026-04-18T07:16:02.999Z</time></trkpt><trkpt lat="43.52592343002886" lon="10.70255761967106"><ele>57.85714285714285</ele><time>2026-04-18T07:16:04.999Z</time></trkpt><trkpt lat="43.525943923782116" lon="10.702641271064712"><ele>57.42857142857142</ele><time>2026-04-18T07:16:07.999Z</time></trkpt><trkpt lat="43.525943923782116" lon="10.702641271064712"><ele>57.0</ele><time>2026-04-18T07:16:07.999Z</time></trkpt><trkpt lat="43.52605578027994" lon="10.702616041536166"><ele>57.0</ele><time>2026-04-18T07:17:53.999Z</time></trkpt><trkpt lat="43.526123212690955" lon="10.702568599964215"><ele>57.0</ele><time>2026-04-18T07:17:54.999Z</time></trkpt><trkpt lat="43.52619781162918" lon="10.702503640214635"><ele>57.0</ele><time>2026-04-18T07:17:55.999Z</time></trkpt><trkpt lat="43.526281253475254" lon="10.702422335753871"><ele>57.0</ele><time>2026-04-18T07:17:56.999Z</time></trkpt><trkpt lat="43.52638116576106" lon="10.70234262385471"><ele>57.0</ele><time>2026-04-18T07:17:57.999Z</time></trkpt><trkpt lat="43.526503122452205" lon="10.702284201989604"><ele>56.75</ele><time>2026-04-18T07:17:58.999Z</time></trkpt><trkpt lat="43.526632329489594" lon="10.702244974682761"><ele>56.5</ele><time>2026-04-18T07:17:59.999Z</time></trkpt><trkpt lat="43.52675084960044" lon="10.702227707962228"><ele>56.25</ele><time>2026-04-18T07:18:00.999Z</time></trkpt><trkpt lat="43.52687024981112" lon="10.702223768467737"><ele>56.0</ele><time>2026-04-18T07:18:01.999Z</time></trkpt><trkpt lat="43.526960942003434" lon="10.702225780124499"><ele>56.0</ele><time>2026-04-18T07:18:02.999Z</time></trkpt><trkpt lat="43.52704241410226" lon="10.702228462333514"><ele>56.0</ele><time>2026-04-18T07:18:03.999Z</time></trkpt><trkpt lat="43.527131513732975" lon="10.702251093472077"><ele>56.0</ele><time>2026-04-18T07:18:05.999Z</time></trkpt><trkpt lat="43.52719550956369" lon="10.702273808429672"><ele>56.0</ele><time>2026-04-18T07:18:07.999Z</time></trkpt><trkpt lat="43.52719550956369" lon="10.702273808429672"><ele>56.0</ele><time>2026-04-18T07:18:07.999Z</time></trkpt></trkseg></trk></gpx>